Wetterdaten: Montag, 16.03.2020
Datum Zeit Temp. Aussen Temp. o. S. Temp +5cm Feuchte Auss Luftdruck Regen Sonnenschein Regendauer Solar Windben Empfang
16.03.2020 00:00 8,4 C 7,8 C 6,7 C 79 % 1013,4 hPa 0,0 l/m 0 min 0 min 0 W/m 0,0 km/h (0 Bft) 100,00 %
16.03.2020 00:02 8,4 C 7,8 C 6,7 C 79 % 1013,4 hPa 0,0 l/m 0 min 0 min 0 W/m 0,0 km/h (0 Bft) 100,00 %
16.03.2020 00:04 8,4 C 7,8 C 6,7 C 80 % 1013,4 hPa 0,0 l/m 0 min 0 min 0 W/m 0,0 km/h (0 Bft) 100,00 %
16.03.2020 00:08 8,4 C 7,2 C 6,7 C 80 % 1013,4 hPa 0,0 l/m 0 min 0 min 0 W/m 0,0 km/h (0 Bft) 100,00 %
16.03.2020 00:10 8,4 C 7,2 C 6,7 C 80 % 1013,4 hPa 0,0 l/m 0 min 0 min 0 W/m 0,0 km/h (0 Bft) 100,00 %
16.03.2020 00:12 8,4 C 7,2 C 6,7 C 80 % 1013,4 hPa 0,0 l/m 0 min 0 min 0 W/m 0,0 km/h (0 Bft) 100,00 %
16.03.2020 00:14 8,3 C 7,2 C 6,7 C 80 % 1013,5 hPa 0,0 l/m 0 min 0 min 0 W/m 0,0 km/h (0 Bft) 100,00 %
16.03.2020 00:16 8,3 C 7,8 C 6,7 C 80 % 1013,5 hPa 0,0 l/m 0 min 0 min 0 W/m 0,0 km/h (0 Bft) 100,00 %
16.03.2020 00:18 8,3 C 7,8 C 6,7 C 80 % 1013,6 hPa 0,0 l/m 0 min 0 min 0 W/m 0,0 km/h (0 Bft) 100,00 %
16.03.2020 00:20 8,3 C 7,8 C 6,7 C 80 % 1013,6 hPa 0,0 l/m 0 min 0 min 0 W/m 0,0 km/h (0 Bft) 97,87 %
16.03.2020 00:22 8,3 C 7,8 C 6,7 C 80 % 1013,5 hPa 0,0 l/m 0 min 0 min 0 W/m 0,0 km/h (0 Bft) 97,87 %
16.03.2020 00:24 8,3 C 7,2 C 6,7 C 80 % 1013,6 hPa 0,0 l/m 0 min 0 min 0 W/m 0,0 km/h (0 Bft) 100,00 %
16.03.2020 00:26 8,3 C 7,2 C 6,7 C 80 % 1013,6 hPa 0,0 l/m 0 min 0 min 0 W/m 0,0 km/h (0 Bft) 100,00 %
16.03.2020 00:28 8,3 C 7,2 C 6,7 C 80 % 1013,6 hPa 0,0 l/m 0 min 0 min 0 W/m 0,0 km/h (0 Bft) 100,00 %
16.03.2020 00:30 8,3 C 7,2 C 6,7 C 80 % 1013,6 hPa 0,0 l/m 0 min 0 min 0 W/m 0,0 km/h (0 Bft) 100,00 %
16.03.2020 00:32 8,3 C 7,2 C 6,7 C 80 % 1013,6 hPa 0,0 l/m 0 min 0 min 0 W/m 0,0 km/h (0 Bft) 100,00 %
16.03.2020 00:34 8,3 C 7,2 C 6,7 C 81 % 1013,4 hPa 0,0 l/m 0 min 0 min 0 W/m 0,0 km/h (0 Bft) 100,00 %
16.03.2020 00:36 8,3 C 7,2 C 6,7 C 81 % 1013,5 hPa 0,0 l/m 0 min 0 min 0 W/m 0,0 km/h (0 Bft) 100,00 %
16.03.2020 00:38 8,2 C 7,2 C 6,7 C 81 % 1013,4 hPa 0,0 l/m 0 min 0 min 0 W/m 0,0 km/h (0 Bft) 55,56 %
16.03.2020 00:40 8,2 C 7,2 C 6,7 C 81 % 1013,5 hPa 0,0 l/m 0 min 0 min 0 W/m 0,0 km/h (0 Bft) 100,00 %
16.03.2020 00:42 8,2 C 7,2 C 6,1 C 81 % 1013,4 hPa 0,0 l/m 0 min 0 min 0 W/m 0,0 km/h (0 Bft) 95,74 %
16.03.2020 00:44 8,2 C 7,2 C 6,1 C 81 % 1013,4 hPa 0,0 l/m 0 min 0 min 0 W/m 0,0 km/h (0 Bft) 97,87 %
16.03.2020 00:46 8,2 C 7,2 C 6,1 C 81 % 1013,5 hPa 0,0 l/m 0 min 0 min 0 W/m 0,0 km/h (0 Bft) 95,74 %
16.03.2020 00:48 8,2 C 7,2 C 6,1 C 81 % 1013,4 hPa 0,0 l/m 0 min 0 min 0 W/m 0,0 km/h (0 Bft) 95,74 %
16.03.2020 00:50 8,1 C 7,2 C 6,1 C 81 % 1013,4 hPa 0,0 l/m 0 min 0 min 0 W/m 0,0 km/h (0 Bft) 97,83 %
16.03.2020 00:52 8,1 C 7,2 C 6,1 C 81 % 1013,4 hPa 0,0 l/m 0 min 0 min 0 W/m 0,0 km/h (0 Bft) 97,87 %
16.03.2020 00:54 8,1 C 7,2 C 6,1 C 81 % 1013,5 hPa 0,0 l/m 0 min 0 min 0 W/m 0,0 km/h (0 Bft) 91,49 %
16.03.2020 00:56 8,1 C 6,7 C 6,1 C 81 % 1013,4 hPa 0,0 l/m 0 min 0 min 0 W/m 0,0 km/h (0 Bft) 95,74 %
16.03.2020 00:58 8,1 C 6,7 C 6,1 C 81 % 1013,5 hPa 0,0 l/m 0 min 0 min 0 W/m 0,0 km/h (0 Bft) 93,62 %
16.03.2020 01:00 8,0 C 6,7 C 5,6 C 81 % 1013,5 hPa 0,0 l/m 0 min 0 min 0 W/m 0,0 km/h (0 Bft) 91,49 %
16.03.2020 01:02 8,0 C 6,7 C 5,6 C 81 % 1013,5 hPa 0,0 l/m 0 min 0 min 0 W/m 0,0 km/h (0 Bft) 93,48 %
16.03.2020 01:04 8,0 C 6,7 C 5,6 C 81 % 1013,5 hPa 0,0 l/m 0 min 0 min 0 W/m 0,0 km/h (0 Bft) 95,45 %
16.03.2020 01:06 7,9 C 6,7 C 5,6 C 81 % 1013,6 hPa 0,0 l/m 0 min 0 min 0 W/m 0,0 km/h (0 Bft) 93,62 %
16.03.2020 01:08 7,9 C 6,7 C 5,6 C 81 % 1013,6 hPa 0,0 l/m 0 min 0 min 0 W/m 0,0 km/h (0 Bft) 95,74 %
16.03.2020 01:10 7,9 C 6,7 C 5,6 C 81 % 1013,6 hPa 0,0 l/m 0 min 0 min 0 W/m 0,0 km/h (0 Bft) 95,65 %
16.03.2020 01:12 7,8 C 6,7 C 5,6 C 81 % 1013,6 hPa 0,0 l/m 0 min 0 min 0 W/m 0,0 km/h (0 Bft) 93,62 %
16.03.2020 01:14 7,8 C 6,7 C 5,6 C 81 % 1013,7 hPa 0,0 l/m 0 min 0 min 0 W/m 0,0 km/h (0 Bft) 93,62 %
16.03.2020 01:16 7,8 C 6,7 C 5,6 C 81 % 1013,6 hPa 0,0 l/m 0 min 0 min 0 W/m 0,0 km/h (0 Bft) 93,62 %
16.03.2020 01:18 7,8 C 6,7 C 5,6 C 81 % 1013,6 hPa 0,0 l/m 0 min 0 min 0 W/m 0,0 km/h (0 Bft) 93,62 %
16.03.2020 01:20 7,7 C 6,7 C 5,6 C 81 % 1013,6 hPa 0,0 l/m 0 min 0 min 0 W/m 0,0 km/h (0 Bft) 95,65 %
16.03.2020 01:22 7,7 C 6,7 C 5,6 C 82 % 1013,6 hPa 0,0 l/m 0 min 0 min 0 W/m 0,0 km/h (0 Bft) 95,74 %
16.03.2020 01:24 7,7 C 6,7 C 5,6 C 82 % 1013,6 hPa 0,0 l/m 0 min 0 min 0 W/m 0,0 km/h (0 Bft) 93,62 %
16.03.2020 01:26 7,6 C 6,7 C 5,6 C 82 % 1013,6 hPa 0,0 l/m 0 min 0 min 0 W/m 0,0 km/h (0 Bft) 89,36 %
16.03.2020 01:28 7,6 C 6,7 C 5,6 C 82 % 1013,6 hPa 0,0 l/m 0 min 0 min 0 W/m 0,0 km/h (0 Bft) 93,62 %
16.03.2020 01:30 7,6 C 6,7 C 5,6 C 82 % 1013,6 hPa 0,0 l/m 0 min 0 min 0 W/m 0,0 km/h (0 Bft) 95,74 %
16.03.2020 01:32 7,6 C 6,7 C 5,6 C 82 % 1013,6 hPa 0,0 l/m 0 min 0 min 0 W/m 0,0 km/h (0 Bft) 97,83 %
16.03.2020 01:34 7,6 C 6,7 C 5,6 C 82 % 1013,7 hPa 0,0 l/m 0 min 0 min 0 W/m 0,0 km/h (0 Bft) 91,49 %
16.03.2020 01:36 7,5 C 6,7 C 5,6 C 82 % 1013,7 hPa 0,0 l/m 0 min 0 min 0 W/m 0,0 km/h (0 Bft) 100,00 %
16.03.2020 01:38 7,5 C 6,7 C 5,6 C 82 % 1013,7 hPa 0,0 l/m 0 min 0 min 0 W/m 16,1 km/h (3 Bft) 100,00 %
16.03.2020 01:40 7,4 C 6,7 C 5,6 C 82 % 1013,7 hPa 0,0 l/m 0 min 0 min 0 W/m 12,9 km/h (3 Bft) 97,87 %
16.03.2020 01:42 7,4 C 6,1 C 5,6 C 82 % 1013,7 hPa 0,0 l/m 0 min 0 min 0 W/m 6,4 km/h (2 Bft) 100,00 %
16.03.2020 01:44 7,4 C 6,1 C 5,6 C 82 % 1013,8 hPa 0,0 l/m 0 min 0 min 0 W/m 6,4 km/h (2 Bft) 100,00 %
16.03.2020 01:46 7,4 C 6,1 C 5,6 C 82 % 1013,7 hPa 0,0 l/m 0 min 0 min 0 W/m 12,9 km/h (3 Bft) 100,00 %
16.03.2020 01:48 7,3 C 6,1 C 5,6 C 82 % 1013,7 hPa 0,0 l/m 0 min 0 min 0 W/m 12,9 km/h (3 Bft) 97,87 %
16.03.2020 01:50 7,3 C 6,1 C 5,6 C 82 % 1013,7 hPa 0,0 l/m 0 min 0 min 0 W/m 3,2 km/h (1 Bft) 100,00 %
16.03.2020 01:52 7,3 C 6,1 C 5,6 C 82 % 1013,7 hPa 0,0 l/m 0 min 0 min 0 W/m 12,9 km/h (3 Bft) 100,00 %
16.03.2020 01:54 7,3 C 6,1 C 5,6 C 82 % 1013,7 hPa 0,0 l/m 0 min 0 min 0 W/m 12,9 km/h (3 Bft) 97,87 %
16.03.2020 01:56 7,2 C 6,1 C 5,6 C 82 % 1013,7 hPa 0,0 l/m 0 min 0 min 0 W/m 12,9 km/h (3 Bft) 100,00 %
16.03.2020 01:58 7,2 C 6,1 C 5,6 C 82 % 1013,7 hPa 0,0 l/m 0 min 0 min 0 W/m 12,9 km/h (3 Bft) 100,00 %
16.03.2020 02:00 7,2 C 6,1 C 5,6 C 82 % 1013,7 hPa 0,0 l/m 0 min 0 min 0 W/m 0,0 km/h (0 Bft) 100,00 %
16.03.2020 02:02 7,2 C 6,1 C 5,6 C 82 % 1013,7 hPa 0,0 l/m 0 min 0 min 0 W/m 0,0 km/h (0 Bft) 100,00 %
16.03.2020 02:04 7,2 C 6,1 C 5,6 C 82 % 1013,7 hPa 0,0 l/m 0 min 0 min 0 W/m 0,0 km/h (0 Bft) 100,00 %
16.03.2020 02:06 7,2 C 6,1 C 5,6 C 82 % 1013,7 hPa 0,0 l/m 0 min 0 min 0 W/m 12,9 km/h (3 Bft) 100,00 %
16.03.2020 02:08 7,1 C 6,1 C 5,6 C 82 % 1013,7 hPa 0,0 l/m 0 min 0 min 0 W/m 0,0 km/h (0 Bft) 100,00 %
16.03.2020 02:10 7,1 C 6,1 C 5,6 C 82 % 1013,7 hPa 0,0 l/m 0 min 0 min 0 W/m 6,4 km/h (2 Bft) 97,87 %
16.03.2020 02:12 7,1 C 6,1 C 5,6 C 82 % 1013,7 hPa 0,0 l/m 0 min 0 min 0 W/m 6,4 km/h (2 Bft) 97,87 %
16.03.2020 02:14 7,1 C 6,1 C 5,6 C 82 % 1013,7 hPa 0,0 l/m 0 min 0 min 0 W/m 0,0 km/h (0 Bft) 97,87 %
16.03.2020 02:16 7,1 C 6,1 C 5,6 C 83 % 1013,7 hPa 0,0 l/m 0 min 0 min 0 W/m 0,0 km/h (0 Bft) 97,87 %
16.03.2020 02:18 7,1 C 6,1 C 5,6 C 83 % 1013,7 hPa 0,0 l/m 0 min 0 min 0 W/m 0,0 km/h (0 Bft) 97,83 %
16.03.2020 02:20 7,0 C 6,1 C 5,0 C 83 % 1013,7 hPa 0,0 l/m 0 min 0 min 0 W/m 0,0 km/h (0 Bft) 93,62 %
16.03.2020 02:22 7,0 C 6,1 C 5,0 C 83 % 1013,7 hPa 0,0 l/m 0 min 0 min 0 W/m 0,0 km/h (0 Bft) 93,62 %
16.03.2020 02:24 6,9 C 6,1 C 5,0 C 83 % 1013,7 hPa 0,0 l/m 0 min 0 min 0 W/m 0,0 km/h (0 Bft) 97,87 %
16.03.2020 02:26 6,9 C 6,1 C 5,0 C 83 % 1013,7 hPa 0,0 l/m 0 min 0 min 0 W/m 0,0 km/h (0 Bft) 97,87 %
16.03.2020 02:28 6,9 C 6,1 C 5,0 C 83 % 1013,7 hPa 0,0 l/m 0 min 0 min 0 W/m 0,0 km/h (0 Bft) 97,87 %
16.03.2020 02:30 6,9 C 6,1 C 5,0 C 83 % 1013,7 hPa 0,0 l/m 0 min 0 min 0 W/m 0,0 km/h (0 Bft) 97,87 %
16.03.2020 02:34 6,8 C 6,1 C 5,0 C 83 % 1013,7 hPa 0,0 l/m 0 min 0 min 0 W/m 0,0 km/h (0 Bft) 96,70 %
16.03.2020 02:36 6,8 C 6,1 C 5,0 C 83 % 1013,6 hPa 0,0 l/m 0 min 0 min 0 W/m 12,9 km/h (3 Bft) 97,87 %
16.03.2020 02:38 6,8 C 6,1 C 5,0 C 83 % 1013,6 hPa 0,0 l/m 0 min 0 min 0 W/m 19,3 km/h (3 Bft) 97,87 %
16.03.2020 02:40 6,8 C 6,1 C 5,0 C 83 % 1013,6 hPa 0,0 l/m 0 min 0 min 0 W/m 0,0 km/h (0 Bft) 97,87 %
16.03.2020 02:42 6,7 C 6,1 C 5,0 C 84 % 1013,6 hPa 0,0 l/m 0 min 0 min 0 W/m 0,0 km/h (0 Bft) 97,87 %
16.03.2020 02:44 6,7 C 6,1 C 5,0 C 84 % 1013,6 hPa 0,0 l/m 0 min 0 min 0 W/m 12,9 km/h (3 Bft) 97,83 %
16.03.2020 02:46 6,7 C 5,6 C 5,0 C 84 % 1013,7 hPa 0,0 l/m 0 min 0 min 0 W/m 3,2 km/h (1 Bft) 97,87 %
16.03.2020 02:48 6,7 C 5,6 C 5,0 C 84 % 1013,7 hPa 0,0 l/m 0 min 0 min 0 W/m 12,9 km/h (3 Bft) 97,87 %
16.03.2020 02:50 6,7 C 5,6 C 5,0 C 84 % 1013,7 hPa 0,0 l/m 0 min 0 min 0 W/m 12,9 km/h (3 Bft) 95,74 %
16.03.2020 02:52 6,7 C 5,6 C 5,0 C 84 % 1013,7 hPa 0,0 l/m 0 min 0 min 0 W/m 16,1 km/h (3 Bft) 97,87 %
16.03.2020 02:54 6,6 C 5,6 C 5,0 C 84 % 1013,6 hPa 0,0 l/m 0 min 0 min 0 W/m 6,4 km/h (2 Bft) 97,83 %
16.03.2020 02:56 6,6 C 5,6 C 5,0 C 84 % 1013,6 hPa 0,0 l/m 0 min 0 min 0 W/m 0,0 km/h (0 Bft) 97,87 %
16.03.2020 02:58 6,6 C 5,6 C 5,0 C 84 % 1013,6 hPa 0,0 l/m 0 min 0 min 0 W/m 3,2 km/h (1 Bft) 97,87 %
16.03.2020 03:00 6,6 C 5,6 C 5,0 C 84 % 1013,6 hPa 0,0 l/m 0 min 0 min 0 W/m 0,0 km/h (0 Bft) 97,87 %
16.03.2020 03:02 6,6 C 5,6 C 5,0 C 84 % 1013,5 hPa 0,0 l/m 0 min 0 min 0 W/m 0,0 km/h (0 Bft) 97,87 %
16.03.2020 03:04 6,6 C 5,6 C 5,0 C 84 % 1013,5 hPa 0,0 l/m 0 min 0 min 0 W/m 0,0 km/h (0 Bft) 93,62 %
16.03.2020 03:06 6,6 C 5,6 C 5,0 C 84 % 1013,5 hPa 0,0 l/m 0 min 0 min 0 W/m 0,0 km/h (0 Bft) 95,65 %
16.03.2020 03:08 6,6 C 5,6 C 5,0 C 84 % 1013,5 hPa 0,0 l/m 0 min 0 min 0 W/m 0,0 km/h (0 Bft) 95,74 %
16.03.2020 03:10 6,5 C 5,6 C 5,0 C 84 % 1013,5 hPa 0,0 l/m 0 min 0 min 0 W/m 0,0 km/h (0 Bft) 100,00 %
16.03.2020 03:12 6,5 C 5,6 C 5,0 C 84 % 1013,5 hPa 0,0 l/m 0 min 0 min 0 W/m 0,0 km/h (0 Bft) 93,62 %
16.03.2020 03:14 6,5 C 5,6 C 5,0 C 84 % 1013,6 hPa 0,0 l/m 0 min 0 min 0 W/m 6,4 km/h (2 Bft) 52,50 %
16.03.2020 03:16 6,5 C 5,6 C 5,0 C 84 % 1013,6 hPa 0,0 l/m 0 min 0 min 0 W/m 0,0 km/h (0 Bft) 97,87 %
16.03.2020 03:18 6,5 C 5,6 C 5,0 C 84 % 1013,6 hPa 0,0 l/m 0 min 0 min 0 W/m 6,4 km/h (2 Bft) 97,83 %
16.03.2020 03:20 6,5 C 5,6 C 5,0 C 84 % 1013,7 hPa 0,0 l/m 0 min 0 min 0 W/m 0,0 km/h (0 Bft) 97,87 %
16.03.2020 03:22 6,4 C 5,6 C 5,0 C 84 % 1013,7 hPa 0,0 l/m 0 min 0 min 0 W/m 0,0 km/h (0 Bft) 97,87 %
16.03.2020 03:24 6,4 C 5,6 C 5,0 C 84 % 1013,7 hPa 0,0 l/m 0 min 0 min 0 W/m 0,0 km/h (0 Bft) 97,87 %
16.03.2020 03:26 6,4 C 5,6 C 5,0 C 84 % 1013,8 hPa 0,0 l/m 0 min 0 min 0 W/m 0,0 km/h (0 Bft) 95,74 %
16.03.2020 03:28 6,4 C 5,6 C 5,0 C 84 % 1013,9 hPa 0,0 l/m 0 min 0 min 0 W/m 0,0 km/h (0 Bft) 97,87 %
16.03.2020 03:30 6,4 C 5,6 C 5,0 C 84 % 1013,8 hPa 0,0 l/m 0 min 0 min 0 W/m 0,0 km/h (0 Bft) 95,65 %
16.03.2020 03:32 6,4 C 5,6 C 4,4 C 84 % 1013,9 hPa 0,0 l/m 0 min 0 min 0 W/m 0,0 km/h (0 Bft) 97,87 %
16.03.2020 03:34 6,4 C 5,6 C 4,4 C 84 % 1013,9 hPa 0,0 l/m 0 min 0 min 0 W/m 0,0 km/h (0 Bft) 97,87 %
16.03.2020 03:36 6,4 C 5,6 C 4,4 C 84 % 1013,8 hPa 0,0 l/m 0 min 0 min 0 W/m 0,0 km/h (0 Bft) 97,87 %
16.03.2020 03:38 6,4 C 5,6 C 4,4 C 84 % 1013,9 hPa 0,0 l/m 0 min 0 min 0 W/m 0,0 km/h (0 Bft) 93,62 %
16.03.2020 03:40 6,3 C 5,6 C 4,4 C 84 % 1013,9 hPa 0,0 l/m 0 min 0 min 0 W/m 0,0 km/h (0 Bft) 95,74 %
16.03.2020 03:42 6,3 C 5,6 C 4,4 C 84 % 1014,0 hPa 0,0 l/m 0 min 0 min 0 W/m 0,0 km/h (0 Bft) 95,65 %
16.03.2020 03:44 6,3 C 5,0 C 4,4 C 84 % 1014,0 hPa 0,0 l/m 0 min 0 min 0 W/m 0,0 km/h (0 Bft) 95,74 %
16.03.2020 03:46 6,3 C 5,0 C 3,9 C 84 % 1014,0 hPa 0,0 l/m 0 min 0 min 0 W/m 0,0 km/h (0 Bft) 95,74 %
16.03.2020 03:48 6,3 C 5,0 C 3,9 C 84 % 1014,1 hPa 0,0 l/m 0 min 0 min 0 W/m 0,0 km/h (0 Bft) 95,74 %
16.03.2020 03:50 6,3 C 5,0 C 3,9 C 84 % 1014,1 hPa 0,0 l/m 0 min 0 min 0 W/m 0,0 km/h (0 Bft) 91,49 %
16.03.2020 03:52 6,3 C 4,4 C 3,9 C 84 % 1014,1 hPa 0,0 l/m 0 min 0 min 0 W/m 0,0 km/h (0 Bft) 93,48 %
16.03.2020 03:54 6,2 C 5,0 C 3,3 C 84 % 1014,2 hPa 0,0 l/m 0 min 0 min 0 W/m 0,0 km/h (0 Bft) 95,74 %
16.03.2020 03:56 6,2 C 5,0 C 3,3 C 84 % 1014,2 hPa 0,0 l/m 0 min 0 min 0 W/m 0,0 km/h (0 Bft) 93,62 %
16.03.2020 03:58 6,2 C 4,4 C 3,3 C 84 % 1014,2 hPa 0,0 l/m 0 min 0 min 0 W/m 0,0 km/h (0 Bft) 95,74 %
16.03.2020 04:00 6,2 C 4,4 C 3,3 C 84 % 1014,3 hPa 0,0 l/m 0 min 0 min 0 W/m 0,0 km/h (0 Bft) 95,74 %
16.03.2020 04:02 6,1 C 3,9 C 3,3 C 84 % 1014,4 hPa 0,0 l/m 0 min 0 min 0 W/m 0,0 km/h (0 Bft) 100,00 %
16.03.2020 04:04 6,1 C 3,9 C 2,8 C 83 % 1014,4 hPa 0,0 l/m 0 min 0 min 0 W/m 0,0 km/h (0 Bft) 95,65 %
16.03.2020 04:06 6,1 C 3,9 C 2,8 C 83 % 1014,4 hPa 0,0 l/m 0 min 0 min 0 W/m 0,0 km/h (0 Bft) 97,87 %
16.03.2020 04:08 6,0 C 4,4 C 2,8 C 83 % 1014,4 hPa 0,0 l/m 0 min 0 min 0 W/m 0,0 km/h (0 Bft) 97,87 %
16.03.2020 04:10 6,0 C 4,4 C 3,3 C 84 % 1014,4 hPa 0,0 l/m 0 min 0 min 0 W/m 0,0 km/h (0 Bft) 97,87 %
16.03.2020 04:12 5,9 C 4,4 C 2,8 C 84 % 1014,4 hPa 0,0 l/m 0 min 0 min 0 W/m 0,0 km/h (0 Bft) 95,74 %
16.03.2020 04:14 5,9 C 4,4 C 2,8 C 84 % 1014,5 hPa 0,0 l/m 0 min 0 min 0 W/m 0,0 km/h (0 Bft) 95,74 %
16.03.2020 04:16 5,9 C 4,4 C 3,3 C 84 % 1014,5 hPa 0,0 l/m 0 min 0 min 0 W/m 0,0 km/h (0 Bft) 97,83 %
16.03.2020 04:18 5,8 C 4,4 C 3,3 C 84 % 1014,6 hPa 0,0 l/m 0 min 0 min 0 W/m 0,0 km/h (0 Bft) 97,87 %
16.03.2020 04:20 5,8 C 4,4 C 3,3 C 84 % 1014,5 hPa 0,0 l/m 0 min 0 min 0 W/m 0,0 km/h (0 Bft) 97,87 %
16.03.2020 04:22 5,8 C 4,4 C 3,3 C 84 % 1014,5 hPa 0,0 l/m 0 min 0 min 0 W/m 0,0 km/h (0 Bft) 97,87 %
16.03.2020 04:24 5,7 C 3,9 C 3,3 C 84 % 1014,5 hPa 0,0 l/m 0 min 0 min 0 W/m 0,0 km/h (0 Bft) 97,87 %
16.03.2020 04:26 5,7 C 3,9 C 2,8 C 84 % 1014,5 hPa 0,0 l/m 0 min 0 min 0 W/m 0,0 km/h (0 Bft) 97,87 %
16.03.2020 04:28 5,7 C 3,9 C 2,8 C 85 % 1014,6 hPa 0,0 l/m 0 min 0 min 0 W/m 0,0 km/h (0 Bft) 97,83 %
16.03.2020 04:30 5,6 C 3,9 C 2,8 C 85 % 1014,6 hPa 0,0 l/m 0 min 0 min 0 W/m 0,0 km/h (0 Bft) 95,74 %
16.03.2020 04:32 5,6 C 4,4 C 3,3 C 85 % 1014,6 hPa 0,0 l/m 0 min 0 min 0 W/m 0,0 km/h (0 Bft) 100,00 %
16.03.2020 04:34 5,6 C 4,4 C 3,3 C 85 % 1014,6 hPa 0,0 l/m 0 min 0 min 0 W/m 0,0 km/h (0 Bft) 97,87 %
16.03.2020 04:36 5,6 C 3,9 C 3,3 C 85 % 1014,6 hPa 0,0 l/m 0 min 0 min 0 W/m 0,0 km/h (0 Bft) 100,00 %
16.03.2020 04:38 5,5 C 3,9 C 2,8 C 85 % 1014,6 hPa 0,0 l/m 0 min 0 min 0 W/m 0,0 km/h (0 Bft) 100,00 %
16.03.2020 04:40 5,5 C 3,9 C 2,8 C 85 % 1014,6 hPa 0,0 l/m 0 min 0 min 0 W/m 0,0 km/h (0 Bft) 97,83 %
16.03.2020 04:42 5,4 C 3,9 C 2,8 C 85 % 1014,6 hPa 0,0 l/m 0 min 0 min 0 W/m 0,0 km/h (0 Bft) 97,87 %
16.03.2020 04:44 5,4 C 3,9 C 2,8 C 85 % 1014,6 hPa 0,0 l/m 0 min 0 min 0 W/m 0,0 km/h (0 Bft) 100,00 %
16.03.2020 04:46 5,4 C 3,9 C 2,8 C 85 % 1014,7 hPa 0,0 l/m 0 min 0 min 0 W/m 0,0 km/h (0 Bft) 100,00 %
16.03.2020 04:48 5,4 C 4,4 C 2,8 C 85 % 1014,7 hPa 0,0 l/m 0 min 0 min 0 W/m 0,0 km/h (0 Bft) 97,87 %
16.03.2020 04:50 5,3 C 4,4 C 3,3 C 85 % 1014,7 hPa 0,0 l/m 0 min 0 min 0 W/m 0,0 km/h (0 Bft) 100,00 %
16.03.2020 04:52 5,3 C 4,4 C 3,3 C 85 % 1014,6 hPa 0,0 l/m 0 min 0 min 0 W/m 0,0 km/h (0 Bft) 100,00 %
16.03.2020 04:54 5,3 C 4,4 C 3,3 C 86 % 1014,7 hPa 0,0 l/m 0 min 0 min 0 W/m 0,0 km/h (0 Bft) 100,00 %
16.03.2020 04:56 5,3 C 4,4 C 3,9 C 86 % 1014,7 hPa 0,0 l/m 0 min 0 min 0 W/m 0,0 km/h (0 Bft) 97,87 %
16.03.2020 04:58 5,3 C 4,4 C 3,9 C 86 % 1014,7 hPa 0,0 l/m 0 min 0 min 0 W/m 0,0 km/h (0 Bft) 100,00 %
16.03.2020 05:00 5,3 C 4,4 C 3,9 C 86 % 1014,8 hPa 0,0 l/m 0 min 0 min 0 W/m 0,0 km/h (0 Bft) 97,87 %
16.03.2020 05:02 5,3 C 4,4 C 3,9 C 86 % 1014,8 hPa 0,0 l/m 0 min 0 min 0 W/m 3,2 km/h (1 Bft) 97,83 %
16.03.2020 05:04 5,2 C 4,4 C 3,9 C 87 % 1014,9 hPa 0,0 l/m 0 min 0 min 0 W/m 3,2 km/h (1 Bft) 97,87 %
16.03.2020 05:06 5,2 C 4,4 C 3,9 C 87 % 1014,9 hPa 0,0 l/m 0 min 0 min 0 W/m 3,2 km/h (1 Bft) 100,00 %
16.03.2020 05:08 5,2 C 4,4 C 3,9 C 87 % 1014,9 hPa 0,0 l/m 0 min 0 min 0 W/m 6,4 km/h (2 Bft) 100,00 %
16.03.2020 05:10 5,2 C 4,4 C 3,9 C 87 % 1015,0 hPa 0,0 l/m 0 min 0 min 0 W/m 12,9 km/h (3 Bft) 100,00 %
16.03.2020 05:12 5,2 C 4,4 C 3,9 C 87 % 1015,0 hPa 0,0 l/m 0 min 0 min 0 W/m 3,2 km/h (1 Bft) 100,00 %
16.03.2020 05:14 5,2 C 4,4 C 3,9 C 87 % 1015,1 hPa 0,0 l/m 0 min 0 min 0 W/m 3,2 km/h (1 Bft) 97,83 %
16.03.2020 05:16 5,2 C 4,4 C 3,9 C 87 % 1015,1 hPa 0,0 l/m 0 min 0 min 0 W/m 0,0 km/h (0 Bft) 95,74 %
16.03.2020 05:18 5,2 C 4,4 C 3,9 C 87 % 1015,1 hPa 0,0 l/m 0 min 0 min 0 W/m 6,4 km/h (2 Bft) 100,00 %
16.03.2020 05:20 5,2 C 4,4 C 3,9 C 87 % 1015,1 hPa 0,0 l/m 0 min 0 min 0 W/m 0,0 km/h (0 Bft) 100,00 %
16.03.2020 05:22 5,2 C 4,4 C 3,9 C 87 % 1015,1 hPa 0,0 l/m 0 min 0 min 0 W/m 0,0 km/h (0 Bft) 80,85 %
16.03.2020 05:24 5,2 C 4,4 C 3,9 C 87 % 1015,1 hPa 0,0 l/m 0 min 0 min 0 W/m 6,4 km/h (2 Bft) 71,11 %
16.03.2020 05:26 5,2 C 4,4 C 3,9 C 87 % 1015,2 hPa 0,0 l/m 0 min 0 min 0 W/m 6,4 km/h (2 Bft) 100,00 %
16.03.2020 05:28 5,2 C 4,4 C 3,9 C 87 % 1015,2 hPa 0,0 l/m 0 min 0 min 0 W/m 6,4 km/h (2 Bft) 100,00 %
16.03.2020 05:30 5,2 C 4,4 C 3,9 C 87 % 1015,2 hPa 0,0 l/m 0 min 0 min 0 W/m 0,0 km/h (0 Bft) 100,00 %
16.03.2020 05:32 5,2 C 4,4 C 3,9 C 88 % 1015,3 hPa 0,0 l/m 0 min 0 min 0 W/m 0,0 km/h (0 Bft) 95,74 %
16.03.2020 05:34 5,2 C 4,4 C 3,9 C 88 % 1015,3 hPa 0,0 l/m 0 min 0 min 0 W/m 0,0 km/h (0 Bft) 95,74 %
16.03.2020 05:36 5,2 C 4,4 C 3,9 C 88 % 1015,4 hPa 0,0 l/m 0 min 0 min 0 W/m 0,0 km/h (0 Bft) 95,74 %
16.03.2020 05:38 5,2 C 4,4 C 3,9 C 87 % 1015,4 hPa 0,0 l/m 0 min 0 min 0 W/m 0,0 km/h (0 Bft) 97,83 %
16.03.2020 05:40 5,2 C 4,4 C 3,3 C 87 % 1015,4 hPa 0,0 l/m 0 min 0 min 0 W/m 0,0 km/h (0 Bft) 97,87 %
16.03.2020 05:42 5,2 C 4,4 C 3,3 C 87 % 1015,4 hPa 0,0 l/m 0 min 0 min 0 W/m 0,0 km/h (0 Bft) 97,87 %
16.03.2020 05:44 5,2 C 4,4 C 3,3 C 87 % 1015,5 hPa 0,0 l/m 0 min 0 min 0 W/m 0,0 km/h (0 Bft) 95,74 %
16.03.2020 05:46 5,2 C 4,4 C 3,3 C 87 % 1015,5 hPa 0,0 l/m 0 min 0 min 0 W/m 0,0 km/h (0 Bft) 97,87 %
16.03.2020 05:48 5,2 C 4,4 C 3,3 C 87 % 1015,5 hPa 0,0 l/m 0 min 0 min 0 W/m 0,0 km/h (0 Bft) 97,87 %
16.03.2020 05:50 5,2 C 3,9 C 3,3 C 87 % 1015,6 hPa 0,0 l/m 0 min 0 min 0 W/m 0,0 km/h (0 Bft) 97,83 %
16.03.2020 05:52 5,2 C 3,9 C 2,8 C 87 % 1015,7 hPa 0,0 l/m 0 min 0 min 0 W/m 0,0 km/h (0 Bft) 97,87 %
16.03.2020 05:54 5,2 C 3,9 C 2,8 C 87 % 1015,7 hPa 0,0 l/m 0 min 0 min 0 W/m 0,0 km/h (0 Bft) 95,74 %
16.03.2020 05:56 5,2 C 3,3 C 2,8 C 87 % 1015,7 hPa 0,0 l/m 0 min 0 min 0 W/m 0,0 km/h (0 Bft) 97,87 %
16.03.2020 05:58 5,1 C 3,3 C 2,8 C 87 % 1015,8 hPa 0,0 l/m 0 min 0 min 0 W/m 0,0 km/h (0 Bft) 97,87 %
16.03.2020 06:00 5,1 C 3,3 C 2,2 C 87 % 1015,9 hPa 0,0 l/m 0 min 0 min 0 W/m 0,0 km/h (0 Bft) 97,87 %
16.03.2020 06:02 5,1 C 3,3 C 2,2 C 87 % 1015,9 hPa 0,0 l/m 0 min 0 min 0 W/m 0,0 km/h (0 Bft) 93,48 %
16.03.2020 06:04 5,1 C 2,8 C 2,2 C 87 % 1015,9 hPa 0,0 l/m 0 min 0 min 0 W/m 0,0 km/h (0 Bft) 97,87 %
16.03.2020 06:08 5,0 C 2,8 C 2,2 C 87 % 1016,0 hPa 0,0 l/m 0 min 0 min 0 W/m 0,0 km/h (0 Bft) 96,81 %
16.03.2020 06:10 4,9 C 2,8 C 2,2 C 87 % 1015,9 hPa 0,0 l/m 0 min 0 min 0 W/m 0,0 km/h (0 Bft) 97,87 %
16.03.2020 06:12 4,9 C 2,8 C 1,7 C 87 % 1015,9 hPa 0,0 l/m 0 min 0 min 0 W/m 0,0 km/h (0 Bft) 100,00 %
16.03.2020 06:14 4,9 C 2,8 C 1,7 C 86 % 1015,9 hPa 0,0 l/m 0 min 0 min 0 W/m 0,0 km/h (0 Bft) 100,00 %
16.03.2020 06:16 4,8 C 2,8 C 1,7 C 86 % 1015,9 hPa 0,0 l/m 0 min 0 min 0 W/m 0,0 km/h (0 Bft) 95,74 %
16.03.2020 06:18 4,8 C 2,8 C 1,7 C 86 % 1016,0 hPa 0,0 l/m 0 min 0 min 0 W/m 0,0 km/h (0 Bft) 97,87 %
16.03.2020 06:20 4,8 C 3,3 C 1,7 C 86 % 1016,0 hPa 0,0 l/m 0 min 0 min 0 W/m 0,0 km/h (0 Bft) 97,87 %
16.03.2020 06:22 4,7 C 3,3 C 1,7 C 86 % 1016,1 hPa 0,0 l/m 0 min 0 min 0 W/m 0,0 km/h (0 Bft) 97,87 %
16.03.2020 06:24 4,7 C 3,3 C 1,7 C 86 % 1016,1 hPa 0,0 l/m 0 min 0 min 0 W/m 0,0 km/h (0 Bft) 95,65 %
16.03.2020 06:26 4,7 C 3,3 C 1,7 C 86 % 1016,1 hPa 0,0 l/m 0 min 0 min 0 W/m 0,0 km/h (0 Bft) 100,00 %
16.03.2020 06:28 4,6 C 2,8 C 1,7 C 86 % 1016,1 hPa 0,0 l/m 0 min 0 min 0 W/m 0,0 km/h (0 Bft) 100,00 %
16.03.2020 06:30 4,6 C 2,8 C 1,7 C 86 % 1016,2 hPa 0,0 l/m 0 min 0 min 0 W/m 0,0 km/h (0 Bft) 97,87 %
16.03.2020 06:32 4,6 C 3,3 C 1,7 C 87 % 1016,1 hPa 0,0 l/m 0 min 0 min 0 W/m 0,0 km/h (0 Bft) 97,87 %
16.03.2020 06:34 4,5 C 3,3 C 1,7 C 87 % 1016,2 hPa 0,0 l/m 0 min 0 min 0 W/m 0,0 km/h (0 Bft) 97,87 %
16.03.2020 06:36 4,5 C 2,8 C 1,7 C 86 % 1016,2 hPa 0,0 l/m 0 min 0 min 0 W/m 0,0 km/h (0 Bft) 97,83 %
16.03.2020 06:38 4,4 C 2,8 C 1,7 C 87 % 1016,2 hPa 0,0 l/m 0 min 0 min 0 W/m 0,0 km/h (0 Bft) 100,00 %
16.03.2020 06:40 4,4 C 3,3 C 1,7 C 87 % 1016,3 hPa 0,0 l/m 0 min 0 min 0 W/m 0,0 km/h (0 Bft) 100,00 %
16.03.2020 06:42 4,4 C 3,9 C 1,7 C 87 % 1016,3 hPa 0,0 l/m 0 min 0 min 0 W/m 0,0 km/h (0 Bft) 97,87 %
16.03.2020 06:44 4,4 C 3,9 C 1,7 C 87 % 1016,3 hPa 0,0 l/m 0 min 0 min 0 W/m 3,2 km/h (1 Bft) 97,87 %
16.03.2020 06:46 4,3 C 3,9 C 1,7 C 87 % 1016,4 hPa 0,0 l/m 0 min 0 min 0 W/m 0,0 km/h (0 Bft) 97,83 %
16.03.2020 06:48 4,4 C 3,9 C 1,7 C 88 % 1016,4 hPa 0,0 l/m 0 min 0 min 0 W/m 0,0 km/h (0 Bft) 95,74 %
16.03.2020 06:50 4,3 C 3,9 C 1,7 C 88 % 1016,4 hPa 0,0 l/m 0 min 0 min 2 W/m 0,0 km/h (0 Bft) 97,87 %
16.03.2020 06:52 4,3 C 3,9 C 1,7 C 88 % 1016,5 hPa 0,0 l/m 0 min 0 min 5 W/m 0,0 km/h (0 Bft) 97,87 %
16.03.2020 06:54 4,3 C 4,4 C 1,7 C 88 % 1016,4 hPa 0,0 l/m 0 min 0 min 6 W/m 0,0 km/h (0 Bft) 97,87 %
16.03.2020 06:56 4,3 C 4,4 C 1,7 C 88 % 1016,5 hPa 0,0 l/m 0 min 0 min 7 W/m 0,0 km/h (0 Bft) 95,74 %
16.03.2020 06:58 4,4 C 4,4 C 1,7 C 89 % 1016,6 hPa 0,0 l/m 0 min 0 min 8 W/m 0,0 km/h (0 Bft) 95,65 %
16.03.2020 07:00 4,4 C 4,4 C 3,3 C 89 % 1016,6 hPa 0,0 l/m 0 min 0 min 9 W/m 0,0 km/h (0 Bft) 95,74 %
16.03.2020 07:02 4,4 C 4,4 C 3,3 C 89 % 1016,6 hPa 0,0 l/m 0 min 0 min 11 W/m 0,0 km/h (0 Bft) 95,74 %
16.03.2020 07:04 4,4 C 4,4 C 3,3 C 89 % 1016,7 hPa 0,0 l/m 0 min 0 min 11 W/m 0,0 km/h (0 Bft) 93,62 %
16.03.2020 07:06 4,4 C 3,9 C 3,3 C 89 % 1016,7 hPa 0,0 l/m 0 min 0 min 11 W/m 0,0 km/h (0 Bft) 93,62 %
16.03.2020 07:08 4,4 C 3,9 C 3,3 C 89 % 1016,8 hPa 0,0 l/m 0 min 0 min 12 W/m 0,0 km/h (0 Bft) 95,74 %
16.03.2020 07:10 4,4 C 4,4 C 3,3 C 89 % 1016,8 hPa 0,0 l/m 0 min 0 min 13 W/m 0,0 km/h (0 Bft) 95,65 %
16.03.2020 07:12 4,4 C 4,4 C 3,3 C 89 % 1016,8 hPa 0,0 l/m 0 min 0 min 15 W/m 0,0 km/h (0 Bft) 95,74 %
16.03.2020 07:14 4,5 C 4,4 C 3,3 C 89 % 1016,8 hPa 0,0 l/m 0 min 0 min 16 W/m 0,0 km/h (0 Bft) 95,74 %
16.03.2020 07:16 4,5 C 4,4 C 3,3 C 89 % 1016,8 hPa 0,0 l/m 0 min 0 min 17 W/m 0,0 km/h (0 Bft) 95,74 %
16.03.2020 07:18 4,5 C 4,4 C 3,3 C 89 % 1016,8 hPa 0,0 l/m 0 min 0 min 18 W/m 0,0 km/h (0 Bft) 97,87 %
16.03.2020 07:20 4,5 C 4,4 C 3,3 C 89 % 1016,8 hPa 0,0 l/m 0 min 0 min 19 W/m 0,0 km/h (0 Bft) 95,74 %
16.03.2020 07:22 4,6 C 4,4 C 3,9 C 89 % 1016,9 hPa 0,0 l/m 0 min 0 min 20 W/m 0,0 km/h (0 Bft) 55,81 %
16.03.2020 07:24 4,6 C 4,4 C 3,9 C 90 % 1016,9 hPa 0,0 l/m 0 min 0 min 22 W/m 0,0 km/h (0 Bft) 93,62 %
16.03.2020 07:26 4,6 C 5,0 C 3,9 C 90 % 1017,0 hPa 0,0 l/m 0 min 0 min 24 W/m 0,0 km/h (0 Bft) 100,00 %
16.03.2020 07:28 4,6 C 5,0 C 3,9 C 90 % 1017,0 hPa 0,0 l/m 0 min 0 min 25 W/m 0,0 km/h (0 Bft) 97,92 %
16.03.2020 07:30 4,6 C 5,0 C 3,9 C 90 % 1017,0 hPa 0,0 l/m 0 min 0 min 26 W/m 0,0 km/h (0 Bft) 97,92 %
16.03.2020 07:32 4,7 C 5,0 C 3,9 C 90 % 1017,1 hPa 0,0 l/m 0 min 0 min 28 W/m 0,0 km/h (0 Bft) 100,00 %
16.03.2020 07:34 4,7 C 5,0 C 3,9 C 90 % 1017,1 hPa 0,0 l/m 0 min 0 min 29 W/m 0,0 km/h (0 Bft) 100,00 %
16.03.2020 07:36 4,7 C 5,0 C 3,9 C 90 % 1017,2 hPa 0,0 l/m 0 min 0 min 30 W/m 0,0 km/h (0 Bft) 100,00 %
16.03.2020 07:38 4,8 C 5,0 C 4,4 C 90 % 1017,2 hPa 0,0 l/m 0 min 0 min 32 W/m 0,0 km/h (0 Bft) 100,00 %
16.03.2020 07:40 4,8 C 5,0 C 4,4 C 90 % 1017,2 hPa 0,0 l/m 0 min 0 min 32 W/m 0,0 km/h (0 Bft) 95,74 %
16.03.2020 07:42 4,9 C 5,0 C 4,4 C 90 % 1017,3 hPa 0,0 l/m 0 min 0 min 32 W/m 0,0 km/h (0 Bft) 95,74 %
16.03.2020 07:44 4,9 C 5,6 C 4,4 C 90 % 1017,3 hPa 0,0 l/m 0 min 0 min 32 W/m 0,0 km/h (0 Bft) 97,87 %
16.03.2020 07:46 5,0 C 5,6 C 4,4 C 90 % 1017,3 hPa 0,0 l/m 0 min 0 min 32 W/m 0,0 km/h (0 Bft) 95,74 %
16.03.2020 07:48 5,0 C 5,6 C 4,4 C 90 % 1017,3 hPa 0,0 l/m 0 min 0 min 32 W/m 0,0 km/h (0 Bft) 100,00 %
16.03.2020 07:50 5,1 C 5,6 C 4,4 C 90 % 1017,4 hPa 0,0 l/m 0 min 0 min 32 W/m 0,0 km/h (0 Bft) 95,83 %
16.03.2020 07:52 5,1 C 5,6 C 4,4 C 89 % 1017,4 hPa 0,0 l/m 0 min 0 min 32 W/m 0,0 km/h (0 Bft) 97,92 %
16.03.2020 07:54 5,2 C 5,6 C 4,4 C 89 % 1017,4 hPa 0,0 l/m 0 min 0 min 33 W/m 0,0 km/h (0 Bft) 97,87 %
16.03.2020 07:56 5,2 C 5,6 C 5,0 C 89 % 1017,4 hPa 0,0 l/m 0 min 0 min 34 W/m 0,0 km/h (0 Bft) 97,87 %
16.03.2020 07:58 5,3 C 5,6 C 5,0 C 89 % 1017,6 hPa 0,0 l/m 0 min 0 min 36 W/m 0,0 km/h (0 Bft) 98,00 %
16.03.2020 08:00 5,3 C 5,6 C 5,0 C 89 % 1017,6 hPa 0,0 l/m 0 min 0 min 39 W/m 0,0 km/h (0 Bft) 97,83 %
16.03.2020 08:02 5,4 C 5,6 C 5,0 C 89 % 1017,6 hPa 0,0 l/m 0 min 0 min 40 W/m 0,0 km/h (0 Bft) 97,87 %
16.03.2020 08:04 5,4 C 6,1 C 5,0 C 89 % 1017,7 hPa 0,0 l/m 0 min 0 min 41 W/m 0,0 km/h (0 Bft) 97,62 %
16.03.2020 08:06 5,4 C 6,1 C 5,0 C 89 % 1017,7 hPa 0,0 l/m 0 min 0 min 40 W/m 0,0 km/h (0 Bft) 97,92 %
16.03.2020 08:08 5,5 C 6,1 C 5,0 C 89 % 1017,7 hPa 0,0 l/m 0 min 0 min 43 W/m 0,0 km/h (0 Bft) 95,74 %
16.03.2020 08:10 5,6 C 6,1 C 5,0 C 89 % 1017,8 hPa 0,0 l/m 0 min 0 min 47 W/m 0,0 km/h (0 Bft) 95,83 %
16.03.2020 08:12 5,6 C 6,1 C 5,0 C 89 % 1017,8 hPa 0,0 l/m 0 min 0 min 47 W/m 0,0 km/h (0 Bft) 95,83 %
16.03.2020 08:14 5,6 C 6,1 C 5,0 C 89 % 1017,8 hPa 0,0 l/m 0 min 0 min 50 W/m 0,0 km/h (0 Bft) 95,83 %
16.03.2020 08:16 5,7 C 6,1 C 5,6 C 88 % 1017,8 hPa 0,0 l/m 0 min 0 min 53 W/m 0,0 km/h (0 Bft) 97,87 %
16.03.2020 08:18 5,7 C 6,1 C 5,6 C 88 % 1017,9 hPa 0,0 l/m 0 min 0 min 54 W/m 0,0 km/h (0 Bft) 95,74 %
16.03.2020 08:20 5,8 C 6,7 C 5,6 C 88 % 1017,9 hPa 0,0 l/m 0 min 0 min 54 W/m 0,0 km/h (0 Bft) 95,74 %
16.03.2020 08:22 5,8 C 6,7 C 5,6 C 88 % 1017,9 hPa 0,0 l/m 0 min 0 min 57 W/m 0,0 km/h (0 Bft) 97,83 %
16.03.2020 08:24 5,9 C 6,7 C 5,6 C 88 % 1017,9 hPa 0,0 l/m 0 min 0 min 60 W/m 0,0 km/h (0 Bft) 100,00 %
16.03.2020 08:26 5,9 C 6,7 C 5,6 C 88 % 1018,0 hPa 0,0 l/m 0 min 0 min 68 W/m 0,0 km/h (0 Bft) 100,00 %
16.03.2020 08:28 5,9 C 7,2 C 6,1 C 88 % 1018,1 hPa 0,0 l/m 0 min 0 min 80 W/m 0,0 km/h (0 Bft) 61,70 %
16.03.2020 08:30 6,1 C 7,2 C 6,1 C 88 % 1018,0 hPa 0,0 l/m 0 min 0 min 87 W/m 0,0 km/h (0 Bft) 89,47 %
16.03.2020 08:32 6,1 C 7,2 C 6,7 C 88 % 1018,1 hPa 0,0 l/m 0 min 0 min 98 W/m 0,0 km/h (0 Bft) 100,00 %
16.03.2020 08:34 6,2 C 7,2 C 6,7 C 88 % 1018,1 hPa 0,0 l/m 0 min 0 min 99 W/m 0,0 km/h (0 Bft) 100,00 %
16.03.2020 08:36 6,3 C 7,2 C 6,7 C 88 % 1018,2 hPa 0,0 l/m 0 min 0 min 105 W/m 0,0 km/h (0 Bft) 100,00 %
16.03.2020 08:38 6,3 C 7,8 C 6,7 C 88 % 1018,3 hPa 0,0 l/m 0 min 0 min 115 W/m 0,0 km/h (0 Bft) 100,00 %
16.03.2020 08:40 6,4 C 7,8 C 7,2 C 88 % 1018,3 hPa 0,0 l/m 0 min 0 min 128 W/m 3,2 km/h (1 Bft) 100,00 %
16.03.2020 08:42 6,5 C 8,3 C 7,2 C 88 % 1018,3 hPa 0,0 l/m 0 min 0 min 134 W/m 0,0 km/h (0 Bft) 100,00 %
16.03.2020 08:44 6,6 C 8,3 C 7,2 C 88 % 1018,4 hPa 0,0 l/m 0 min 0 min 134 W/m 0,0 km/h (0 Bft) 100,00 %
16.03.2020 08:46 6,6 C 8,3 C 7,2 C 88 % 1018,4 hPa 0,0 l/m 0 min 0 min 130 W/m 6,4 km/h (2 Bft) 100,00 %
16.03.2020 08:48 6,7 C 8,3 C 7,8 C 88 % 1018,4 hPa 0,0 l/m 0 min 0 min 125 W/m 0,0 km/h (0 Bft) 100,00 %
16.03.2020 08:50 6,8 C 8,3 C 7,8 C 88 % 1018,4 hPa 0,0 l/m 0 min 0 min 123 W/m 0,0 km/h (0 Bft) 100,00 %
16.03.2020 08:52 6,9 C 8,3 C 7,8 C 88 % 1018,5 hPa 0,0 l/m 0 min 0 min 146 W/m 0,0 km/h (0 Bft) 100,00 %
16.03.2020 08:54 6,9 C 8,9 C 7,8 C 87 % 1018,5 hPa 0,0 l/m 2 min 0 min 159 W/m 0,0 km/h (0 Bft) 100,00 %
16.03.2020 08:56 7,0 C 8,9 C 7,8 C 87 % 1018,5 hPa 0,0 l/m 2 min 0 min 173 W/m 0,0 km/h (0 Bft) 100,00 %
16.03.2020 08:58 7,1 C 8,9 C 7,8 C 87 % 1018,5 hPa 0,0 l/m 0 min 0 min 148 W/m 0,0 km/h (0 Bft) 100,00 %
16.03.2020 09:00 7,2 C 8,9 C 7,8 C 87 % 1018,5 hPa 0,0 l/m 0 min 0 min 128 W/m 0,0 km/h (0 Bft) 97,92 %
16.03.2020 09:02 7,3 C 9,4 C 7,8 C 87 % 1018,5 hPa 0,0 l/m 0 min 0 min 124 W/m 0,0 km/h (0 Bft) 100,00 %
16.03.2020 09:04 7,3 C 11,1 C 7,8 C 87 % 1018,6 hPa 0,0 l/m 2 min 0 min 202 W/m 0,0 km/h (0 Bft) 97,87 %
16.03.2020 09:06 7,4 C 11,7 C 7,8 C 86 % 1018,7 hPa 0,0 l/m 2 min 0 min 227 W/m 0,0 km/h (0 Bft) 100,00 %
16.03.2020 09:08 7,5 C 11,7 C 7,8 C 86 % 1018,7 hPa 0,0 l/m 2 min 0 min 272 W/m 0,0 km/h (0 Bft) 97,87 %
16.03.2020 09:10 7,6 C 12,2 C 8,3 C 86 % 1018,7 hPa 0,0 l/m 2 min 0 min 296 W/m 0,0 km/h (0 Bft) 100,00 %
16.03.2020 09:12 7,7 C 12,2 C 8,3 C 86 % 1018,7 hPa 0,0 l/m 2 min 0 min 225 W/m 0,0 km/h (0 Bft) 91,49 %
16.03.2020 09:14 7,8 C 12,8 C 8,3 C 86 % 1018,7 hPa 0,0 l/m 2 min 0 min 239 W/m 0,0 km/h (0 Bft) 95,74 %
16.03.2020 09:16 7,9 C 13,9 C 8,9 C 86 % 1018,7 hPa 0,0 l/m 2 min 0 min 305 W/m 0,0 km/h (0 Bft) 95,74 %
16.03.2020 09:18 8,1 C 14,4 C 10,6 C 86 % 1018,8 hPa 0,0 l/m 2 min 0 min 327 W/m 0,0 km/h (0 Bft) 97,56 %
16.03.2020 09:20 8,2 C 15,0 C 12,2 C 86 % 1018,8 hPa 0,0 l/m 2 min 0 min 343 W/m 0,0 km/h (0 Bft) 97,92 %
16.03.2020 09:22 8,4 C 15,6 C 13,9 C 85 % 1018,8 hPa 0,0 l/m 2 min 0 min 361 W/m 0,0 km/h (0 Bft) 97,92 %
16.03.2020 09:24 8,5 C 15,6 C 14,4 C 85 % 1018,8 hPa 0,0 l/m 2 min 0 min 363 W/m 0,0 km/h (0 Bft) 95,83 %
16.03.2020 09:26 8,7 C 15,6 C 14,4 C 85 % 1018,8 hPa 0,0 l/m 2 min 0 min 343 W/m 0,0 km/h (0 Bft) 97,92 %
16.03.2020 09:28 8,8 C 16,1 C 15,0 C 84 % 1018,9 hPa 0,0 l/m 2 min 0 min 303 W/m 0,0 km/h (0 Bft) 97,87 %
16.03.2020 09:30 9,0 C 15,6 C 14,4 C 84 % 1019,0 hPa 0,0 l/m 2 min 0 min 392 W/m 0,0 km/h (0 Bft) 95,83 %
16.03.2020 09:32 9,1 C 15,6 C 15,0 C 84 % 1019,0 hPa 0,0 l/m 2 min 0 min 398 W/m 0,0 km/h (0 Bft) 93,48 %
16.03.2020 09:34 9,3 C 16,1 C 16,1 C 84 % 1019,0 hPa 0,0 l/m 2 min 0 min 436 W/m 0,0 km/h (0 Bft) 95,74 %
16.03.2020 09:36 9,4 C 15,6 C 16,1 C 83 % 1019,0 hPa 0,0 l/m 2 min 0 min 452 W/m 0,0 km/h (0 Bft) 95,74 %
16.03.2020 09:38 9,6 C 17,2 C 16,7 C 83 % 1019,0 hPa 0,0 l/m 2 min 0 min 432 W/m 0,0 km/h (0 Bft) 93,62 %
16.03.2020 09:40 9,8 C 16,7 C 16,1 C 82 % 1019,0 hPa 0,0 l/m 2 min 0 min 426 W/m 0,0 km/h (0 Bft) 93,62 %
16.03.2020 09:42 9,9 C 17,2 C 16,1 C 82 % 1019,1 hPa 0,0 l/m 2 min 0 min 440 W/m 0,0 km/h (0 Bft) 95,12 %
16.03.2020 09:44 10,1 C 17,2 C 16,1 C 81 % 1019,1 hPa 0,0 l/m 2 min 0 min 454 W/m 0,0 km/h (0 Bft) 95,74 %
16.03.2020 09:46 10,3 C 17,2 C 15,0 C 81 % 1019,1 hPa 0,0 l/m 2 min 0 min 424 W/m 0,0 km/h (0 Bft) 97,92 %
16.03.2020 09:48 10,5 C 17,8 C 13,9 C 81 % 1019,2 hPa 0,0 l/m 2 min 0 min 385 W/m 0,0 km/h (0 Bft) 97,92 %
16.03.2020 09:50 10,7 C 18,3 C 13,3 C 80 % 1019,2 hPa 0,0 l/m 2 min 0 min 426 W/m 0,0 km/h (0 Bft) 97,92 %
16.03.2020 09:52 10,8 C 18,9 C 12,8 C 80 % 1019,2 hPa 0,0 l/m 2 min 0 min 451 W/m 0,0 km/h (0 Bft) 97,87 %
16.03.2020 09:54 11,0 C 18,9 C 12,2 C 80 % 1019,2 hPa 0,0 l/m 2 min 0 min 465 W/m 0,0 km/h (0 Bft) 97,87 %
16.03.2020 09:56 11,2 C 17,8 C 11,7 C 79 % 1019,2 hPa 0,0 l/m 2 min 0 min 475 W/m 0,0 km/h (0 Bft) 97,92 %
16.03.2020 09:58 11,3 C 18,3 C 11,7 C 78 % 1019,2 hPa 0,0 l/m 2 min 0 min 482 W/m 0,0 km/h (0 Bft) 97,87 %
16.03.2020 10:00 11,4 C 18,3 C 11,1 C 78 % 1019,2 hPa 0,0 l/m 2 min 0 min 496 W/m 0,0 km/h (0 Bft) 97,87 %
16.03.2020 10:02 11,6 C 17,8 C 11,1 C 77 % 1019,3 hPa 0,0 l/m 2 min 0 min 496 W/m 0,0 km/h (0 Bft) 97,87 %
16.03.2020 10:04 11,7 C 18,3 C 11,7 C 77 % 1019,3 hPa 0,0 l/m 2 min 0 min 439 W/m 0,0 km/h (0 Bft) 97,87 %
16.03.2020 10:06 11,9 C 18,9 C 11,1 C 77 % 1019,3 hPa 0,0 l/m 2 min 0 min 458 W/m 0,0 km/h (0 Bft) 97,87 %
16.03.2020 10:08 12,0 C 18,3 C 11,1 C 76 % 1019,3 hPa 0,0 l/m 2 min 0 min 412 W/m 0,0 km/h (0 Bft) 100,00 %
16.03.2020 10:10 12,1 C 18,9 C 11,1 C 77 % 1019,4 hPa 0,0 l/m 2 min 0 min 420 W/m 0,0 km/h (0 Bft) 100,00 %
16.03.2020 10:12 12,3 C 18,9 C 11,1 C 77 % 1019,4 hPa 0,0 l/m 2 min 0 min 446 W/m 0,0 km/h (0 Bft) 97,92 %
16.03.2020 10:14 12,4 C 18,9 C 11,7 C 76 % 1019,4 hPa 0,0 l/m 2 min 0 min 427 W/m 0,0 km/h (0 Bft) 100,00 %
16.03.2020 10:16 12,5 C 18,9 C 11,7 C 76 % 1019,4 hPa 0,0 l/m 2 min 0 min 429 W/m 0,0 km/h (0 Bft) 100,00 %
16.03.2020 10:18 12,6 C 18,9 C 11,7 C 76 % 1019,5 hPa 0,0 l/m 2 min 0 min 473 W/m 0,0 km/h (0 Bft) 100,00 %
16.03.2020 10:20 12,7 C 18,9 C 11,7 C 76 % 1019,4 hPa 0,0 l/m 2 min 0 min 421 W/m 0,0 km/h (0 Bft) 100,00 %
16.03.2020 10:22 12,7 C 18,9 C 11,7 C 76 % 1019,4 hPa 0,0 l/m 2 min 0 min 469 W/m 0,0 km/h (0 Bft) 100,00 %
16.03.2020 10:24 12,8 C 18,9 C 11,7 C 76 % 1019,4 hPa 0,0 l/m 2 min 0 min 461 W/m 0,0 km/h (0 Bft) 100,00 %
16.03.2020 10:26 12,9 C 18,9 C 11,7 C 75 % 1019,6 hPa 0,0 l/m 2 min 0 min 518 W/m 0,0 km/h (0 Bft) 100,00 %
16.03.2020 10:28 13,0 C 19,4 C 11,7 C 75 % 1019,5 hPa 0,0 l/m 2 min 0 min 554 W/m 0,0 km/h (0 Bft) 97,87 %
16.03.2020 10:30 13,1 C 20,0 C 11,1 C 75 % 1019,5 hPa 0,0 l/m 2 min 0 min 521 W/m 0,0 km/h (0 Bft) 100,00 %
16.03.2020 10:32 13,2 C 19,4 C 11,7 C 75 % 1019,5 hPa 0,0 l/m 2 min 0 min 502 W/m 0,0 km/h (0 Bft) 100,00 %
16.03.2020 10:34 13,2 C 19,4 C 11,1 C 74 % 1019,5 hPa 0,0 l/m 2 min 0 min 546 W/m 0,0 km/h (0 Bft) 97,62 %
16.03.2020 10:36 13,3 C 19,4 C 11,1 C 74 % 1019,5 hPa 0,0 l/m 2 min 0 min 506 W/m 0,0 km/h (0 Bft) 100,00 %
16.03.2020 10:38 13,3 C 20,0 C 11,7 C 74 % 1019,6 hPa 0,0 l/m 2 min 0 min 538 W/m 0,0 km/h (0 Bft) 100,00 %
16.03.2020 10:40 13,4 C 20,0 C 11,7 C 75 % 1019,5 hPa 0,0 l/m 2 min 0 min 566 W/m 6,4 km/h (2 Bft) 100,00 %
16.03.2020 10:42 13,4 C 18,9 C 11,7 C 73 % 1019,5 hPa 0,0 l/m 2 min 0 min 536 W/m 0,0 km/h (0 Bft) 100,00 %
16.03.2020 10:44 13,4 C 18,3 C 11,7 C 73 % 1019,5 hPa 0,0 l/m 2 min 0 min 448 W/m 0,0 km/h (0 Bft) 100,00 %
16.03.2020 10:46 13,5 C 19,4 C 11,7 C 73 % 1019,6 hPa 0,0 l/m 2 min 0 min 482 W/m 0,0 km/h (0 Bft) 97,87 %
16.03.2020 10:48 13,5 C 18,9 C 11,7 C 73 % 1019,7 hPa 0,0 l/m 2 min 0 min 525 W/m 0,0 km/h (0 Bft) 100,00 %
16.03.2020 10:50 13,6 C 19,4 C 11,7 C 73 % 1019,6 hPa 0,0 l/m 2 min 0 min 575 W/m 6,4 km/h (2 Bft) 100,00 %
16.03.2020 10:52 13,6 C 20,0 C 11,7 C 73 % 1019,6 hPa 0,0 l/m 2 min 0 min 492 W/m 3,2 km/h (1 Bft) 100,00 %
16.03.2020 10:54 13,7 C 18,9 C 11,7 C 73 % 1019,6 hPa 0,0 l/m 2 min 0 min 472 W/m 0,0 km/h (0 Bft) 97,83 %
16.03.2020 10:56 13,8 C 20,0 C 11,7 C 73 % 1019,7 hPa 0,0 l/m 2 min 0 min 490 W/m 0,0 km/h (0 Bft) 100,00 %
16.03.2020 10:58 13,8 C 19,4 C 11,7 C 73 % 1019,7 hPa 0,0 l/m 2 min 0 min 508 W/m 0,0 km/h (0 Bft) 100,00 %
16.03.2020 11:00 13,9 C 20,0 C 11,7 C 73 % 1019,7 hPa 0,0 l/m 2 min 0 min 481 W/m 0,0 km/h (0 Bft) 100,00 %
16.03.2020 11:02 13,9 C 19,4 C 12,2 C 73 % 1019,6 hPa 0,0 l/m 2 min 0 min 493 W/m 0,0 km/h (0 Bft) 100,00 %
16.03.2020 11:04 13,9 C 20,0 C 12,2 C 73 % 1019,7 hPa 0,0 l/m 2 min 0 min 486 W/m 6,4 km/h (2 Bft) 100,00 %
16.03.2020 11:06 14,0 C 20,0 C 12,2 C 73 % 1019,7 hPa 0,0 l/m 2 min 0 min 508 W/m 3,2 km/h (1 Bft) 100,00 %
16.03.2020 11:08 14,1 C 20,0 C 12,2 C 73 % 1019,7 hPa 0,0 l/m 2 min 0 min 516 W/m 0,0 km/h (0 Bft) 100,00 %
16.03.2020 11:10 14,1 C 21,1 C 12,2 C 74 % 1019,7 hPa 0,0 l/m 2 min 0 min 568 W/m 6,4 km/h (2 Bft) 100,00 %
16.03.2020 11:12 14,2 C 20,0 C 12,2 C 73 % 1019,7 hPa 0,0 l/m 2 min 0 min 564 W/m 6,4 km/h (2 Bft) 100,00 %
16.03.2020 11:14 14,2 C 20,0 C 12,2 C 72 % 1019,7 hPa 0,0 l/m 2 min 0 min 518 W/m 0,0 km/h (0 Bft) 100,00 %
16.03.2020 11:16 14,2 C 19,4 C 12,2 C 73 % 1019,7 hPa 0,0 l/m 2 min 0 min 457 W/m 3,2 km/h (1 Bft) 97,87 %
16.03.2020 11:18 14,3 C 19,4 C 12,8 C 72 % 1019,7 hPa 0,0 l/m 2 min 0 min 481 W/m 0,0 km/h (0 Bft) 97,87 %
16.03.2020 11:20 14,3 C 18,9 C 12,8 C 72 % 1019,8 hPa 0,0 l/m 2 min 0 min 498 W/m 0,0 km/h (0 Bft) 97,87 %
16.03.2020 11:22 14,3 C 19,4 C 12,2 C 72 % 1019,8 hPa 0,0 l/m 2 min 0 min 532 W/m 0,0 km/h (0 Bft) 97,87 %
16.03.2020 11:24 14,3 C 20,0 C 12,8 C 72 % 1019,8 hPa 0,0 l/m 2 min 0 min 510 W/m 3,2 km/h (1 Bft) 95,74 %
16.03.2020 11:26 14,3 C 20,0 C 12,8 C 72 % 1019,8 hPa 0,0 l/m 2 min 0 min 537 W/m 0,0 km/h (0 Bft) 95,74 %
16.03.2020 11:28 14,3 C 21,1 C 12,8 C 72 % 1019,9 hPa 0,0 l/m 2 min 0 min 601 W/m 0,0 km/h (0 Bft) 95,65 %
16.03.2020 11:30 14,4 C 21,7 C 12,8 C 72 % 1019,9 hPa 0,0 l/m 2 min 0 min 626 W/m 0,0 km/h (0 Bft) 97,62 %
16.03.2020 11:32 14,4 C 22,2 C 12,8 C 73 % 1020,0 hPa 0,0 l/m 2 min 0 min 634 W/m 3,2 km/h (1 Bft) 95,92 %
16.03.2020 11:34 14,6 C 22,8 C 12,8 C 74 % 1020,0 hPa 0,0 l/m 2 min 0 min 625 W/m 0,0 km/h (0 Bft) 100,00 %
16.03.2020 11:36 14,7 C 22,8 C 12,8 C 74 % 1020,0 hPa 0,0 l/m 2 min 0 min 596 W/m 0,0 km/h (0 Bft) 97,87 %
16.03.2020 11:38 14,8 C 22,8 C 12,8 C 73 % 1020,0 hPa 0,0 l/m 2 min 0 min 585 W/m 0,0 km/h (0 Bft) 97,92 %
16.03.2020 11:40 14,9 C 21,7 C 12,8 C 73 % 1020,1 hPa 0,0 l/m 2 min 0 min 604 W/m 0,0 km/h (0 Bft) 97,92 %
16.03.2020 11:42 14,9 C 21,1 C 12,8 C 72 % 1020,1 hPa 0,0 l/m 2 min 0 min 579 W/m 0,0 km/h (0 Bft) 95,74 %
16.03.2020 11:44 15,0 C 21,1 C 13,3 C 72 % 1020,1 hPa 0,0 l/m 2 min 0 min 603 W/m 0,0 km/h (0 Bft) 97,87 %
16.03.2020 11:46 15,1 C 20,6 C 13,3 C 72 % 1020,1 hPa 0,0 l/m 2 min 0 min 620 W/m 6,4 km/h (2 Bft) 97,87 %
16.03.2020 11:48 15,2 C 21,7 C 13,3 C 71 % 1020,1 hPa 0,0 l/m 2 min 0 min 664 W/m 6,4 km/h (2 Bft) 97,87 %
16.03.2020 11:50 15,3 C 21,7 C 13,9 C 72 % 1020,1 hPa 0,0 l/m 2 min 0 min 644 W/m 3,2 km/h (1 Bft) 95,74 %
16.03.2020 11:52 15,3 C 20,0 C 13,9 C 71 % 1020,1 hPa 0,0 l/m 2 min 0 min 529 W/m 3,2 km/h (1 Bft) 97,83 %
16.03.2020 11:54 15,4 C 20,0 C 13,9 C 71 % 1020,2 hPa 0,0 l/m 2 min 0 min 480 W/m 6,4 km/h (2 Bft) 100,00 %
16.03.2020 11:56 15,4 C 20,0 C 13,9 C 71 % 1020,2 hPa 0,0 l/m 2 min 0 min 526 W/m 0,0 km/h (0 Bft) 97,62 %
16.03.2020 11:58 15,4 C 21,1 C 13,9 C 72 % 1020,2 hPa 0,0 l/m 2 min 0 min 633 W/m 0,0 km/h (0 Bft) 94,00 %
16.03.2020 12:00 15,6 C 21,7 C 13,9 C 72 % 1020,2 hPa 0,0 l/m 2 min 0 min 604 W/m 0,0 km/h (0 Bft) 95,65 %
16.03.2020 12:02 15,6 C 21,1 C 13,9 C 72 % 1020,3 hPa 0,0 l/m 2 min 0 min 592 W/m 0,0 km/h (0 Bft) 97,87 %
16.03.2020 12:04 15,7 C 21,7 C 14,4 C 71 % 1020,2 hPa 0,0 l/m 2 min 0 min 648 W/m 3,2 km/h (1 Bft) 97,96 %
16.03.2020 12:08 15,7 C 21,1 C 13,9 C 70 % 1020,2 hPa 0,0 l/m 4 min 0 min 586 W/m 6,4 km/h (2 Bft) 96,81 %
16.03.2020 12:10 15,7 C 21,1 C 13,9 C 70 % 1020,2 hPa 0,0 l/m 2 min 0 min 523 W/m 0,0 km/h (0 Bft) 97,87 %
16.03.2020 12:12 15,8 C 21,7 C 14,4 C 70 % 1020,2 hPa 0,0 l/m 2 min 0 min 697 W/m 3,2 km/h (1 Bft) 97,87 %
16.03.2020 12:14 15,8 C 22,2 C 14,4 C 69 % 1020,3 hPa 0,0 l/m 2 min 0 min 672 W/m 0,0 km/h (0 Bft) 97,87 %
16.03.2020 12:16 15,8 C 22,2 C 14,4 C 69 % 1020,3 hPa 0,0 l/m 2 min 0 min 602 W/m 0,0 km/h (0 Bft) 97,83 %
16.03.2020 12:18 15,9 C 22,8 C 15,0 C 69 % 1020,3 hPa 0,0 l/m 2 min 0 min 660 W/m 0,0 km/h (0 Bft) 97,62 %
16.03.2020 12:20 16,0 C 23,3 C 15,0 C 71 % 1020,3 hPa 0,0 l/m 2 min 0 min 668 W/m 3,2 km/h (1 Bft) 97,87 %
16.03.2020 12:22 16,1 C 22,8 C 15,0 C 69 % 1020,3 hPa 0,0 l/m 2 min 0 min 707 W/m 3,2 km/h (1 Bft) 97,87 %
16.03.2020 12:24 16,1 C 22,8 C 14,4 C 69 % 1020,3 hPa 0,0 l/m 2 min 0 min 665 W/m 0,0 km/h (0 Bft) 97,83 %
16.03.2020 12:26 16,2 C 22,8 C 15,0 C 69 % 1020,3 hPa 0,0 l/m 2 min 0 min 694 W/m 3,2 km/h (1 Bft) 97,92 %
16.03.2020 12:28 16,2 C 22,2 C 15,0 C 68 % 1020,3 hPa 0,0 l/m 2 min 0 min 692 W/m 12,9 km/h (3 Bft) 97,92 %
16.03.2020 12:30 16,2 C 23,3 C 15,0 C 68 % 1020,3 hPa 0,0 l/m 2 min 0 min 703 W/m 0,0 km/h (0 Bft) 97,87 %
16.03.2020 12:32 16,3 C 22,8 C 15,0 C 68 % 1020,3 hPa 0,0 l/m 2 min 0 min 708 W/m 0,0 km/h (0 Bft) 95,92 %
16.03.2020 12:34 16,4 C 23,3 C 15,0 C 68 % 1020,3 hPa 0,0 l/m 2 min 0 min 690 W/m 3,2 km/h (1 Bft) 100,00 %
16.03.2020 12:36 16,4 C 21,7 C 15,0 C 67 % 1020,3 hPa 0,0 l/m 2 min 0 min 646 W/m 3,2 km/h (1 Bft) 100,00 %
16.03.2020 12:38 16,5 C 22,2 C 15,6 C 67 % 1020,3 hPa 0,0 l/m 2 min 0 min 674 W/m 3,2 km/h (1 Bft) 100,00 %
16.03.2020 12:40 16,6 C 22,2 C 16,1 C 67 % 1020,3 hPa 0,0 l/m 2 min 0 min 677 W/m 0,0 km/h (0 Bft) 100,00 %
16.03.2020 12:42 16,6 C 23,3 C 17,8 C 67 % 1020,3 hPa 0,0 l/m 2 min 0 min 632 W/m 0,0 km/h (0 Bft) 100,00 %
16.03.2020 12:44 16,7 C 23,3 C 20,0 C 66 % 1020,3 hPa 0,0 l/m 2 min 0 min 685 W/m 0,0 km/h (0 Bft) 100,00 %
16.03.2020 12:46 16,7 C 23,9 C 21,1 C 67 % 1020,3 hPa 0,0 l/m 2 min 0 min 692 W/m 0,0 km/h (0 Bft) 100,00 %
16.03.2020 12:48 16,8 C 23,9 C 21,7 C 68 % 1020,3 hPa 0,0 l/m 2 min 0 min 663 W/m 0,0 km/h (0 Bft) 100,00 %
16.03.2020 12:50 16,8 C 23,3 C 22,2 C 66 % 1020,3 hPa 0,0 l/m 2 min 0 min 678 W/m 0,0 km/h (0 Bft) 100,00 %
16.03.2020 12:52 16,8 C 22,8 C 22,8 C 65 % 1020,2 hPa 0,0 l/m 2 min 0 min 685 W/m 0,0 km/h (0 Bft) 100,00 %
16.03.2020 12:54 16,9 C 21,1 C 22,2 C 65 % 1020,2 hPa 0,0 l/m 2 min 0 min 684 W/m 0,0 km/h (0 Bft) 100,00 %
16.03.2020 12:56 16,9 C 20,6 C 22,8 C 65 % 1020,2 hPa 0,0 l/m 2 min 0 min 682 W/m 0,0 km/h (0 Bft) 100,00 %
16.03.2020 12:58 16,9 C 20,6 C 22,8 C 65 % 1020,2 hPa 0,0 l/m 2 min 0 min 666 W/m 0,0 km/h (0 Bft) 100,00 %
16.03.2020 13:00 16,9 C 20,0 C 22,8 C 65 % 1020,2 hPa 0,0 l/m 2 min 0 min 682 W/m 3,2 km/h (1 Bft) 97,92 %
16.03.2020 13:02 16,9 C 21,1 C 22,8 C 65 % 1020,2 hPa 0,0 l/m 2 min 0 min 690 W/m 0,0 km/h (0 Bft) 100,00 %
16.03.2020 13:04 17,0 C 22,2 C 22,8 C 65 % 1020,3 hPa 0,0 l/m 2 min 0 min 693 W/m 0,0 km/h (0 Bft) 100,00 %
16.03.2020 13:09 17,1 C 23,9 C 22,8 C 66 % 1020,4 hPa 0,0 l/m 5 min 0 min 620 W/m 0,0 km/h (0 Bft) 100,00 %
16.03.2020 13:10 17,1 C 23,9 C 22,8 C 66 % 1020,4 hPa 0,0 l/m 1 min 0 min 640 W/m 3,2 km/h (1 Bft) 100,00 %
16.03.2020 13:12 17,1 C 23,9 C 22,8 C 65 % 1020,3 hPa 0,0 l/m 2 min 0 min 660 W/m 0,0 km/h (0 Bft) 100,00 %
16.03.2020 13:14 17,1 C 23,3 C 22,2 C 65 % 1020,3 hPa 0,0 l/m 2 min 0 min 664 W/m 0,0 km/h (0 Bft) 100,00 %
16.03.2020 13:16 17,1 C 23,9 C 22,2 C 65 % 1020,3 hPa 0,0 l/m 2 min 0 min 665 W/m 0,0 km/h (0 Bft) 100,00 %
16.03.2020 13:18 17,1 C 24,4 C 23,3 C 67 % 1020,2 hPa 0,0 l/m 2 min 0 min 658 W/m 6,4 km/h (2 Bft) 100,00 %
16.03.2020 13:20 17,2 C 23,9 C 23,3 C 67 % 1020,2 hPa 0,0 l/m 2 min 0 min 644 W/m 0,0 km/h (0 Bft) 100,00 %
16.03.2020 13:22 17,2 C 23,9 C 22,8 C 66 % 1020,2 hPa 0,0 l/m 2 min 0 min 646 W/m 0,0 km/h (0 Bft) 100,00 %
16.03.2020 13:24 17,3 C 24,4 C 22,2 C 66 % 1020,3 hPa 0,0 l/m 2 min 0 min 660 W/m 0,0 km/h (0 Bft) 100,00 %
16.03.2020 13:26 17,3 C 25,0 C 21,7 C 67 % 1020,2 hPa 0,0 l/m 2 min 0 min 669 W/m 0,0 km/h (0 Bft) 100,00 %
16.03.2020 13:28 17,4 C 24,4 C 20,0 C 66 % 1020,1 hPa 0,0 l/m 2 min 0 min 677 W/m 0,0 km/h (0 Bft) 100,00 %
16.03.2020 13:30 17,4 C 24,4 C 19,4 C 65 % 1020,2 hPa 0,0 l/m 2 min 0 min 646 W/m 0,0 km/h (0 Bft) 100,00 %
16.03.2020 13:32 17,4 C 23,9 C 18,9 C 64 % 1020,2 hPa 0,0 l/m 2 min 0 min 661 W/m 0,0 km/h (0 Bft) 97,87 %
16.03.2020 13:34 17,4 C 21,7 C 18,3 C 64 % 1020,2 hPa 0,0 l/m 2 min 0 min 690 W/m 9,7 km/h (2 Bft) 97,87 %
16.03.2020 13:36 17,4 C 19,4 C 17,2 C 63 % 1020,3 hPa 0,0 l/m 2 min 0 min 722 W/m 6,4 km/h (2 Bft) 97,83 %
16.03.2020 13:38 17,4 C 20,0 C 16,7 C 63 % 1020,3 hPa 0,0 l/m 2 min 0 min 541 W/m 0,0 km/h (0 Bft) 97,87 %
16.03.2020 13:40 17,4 C 21,1 C 16,7 C 63 % 1020,2 hPa 0,0 l/m 2 min 0 min 703 W/m 0,0 km/h (0 Bft) 97,87 %
16.03.2020 13:42 17,4 C 22,2 C 16,7 C 64 % 1020,2 hPa 0,0 l/m 2 min 0 min 723 W/m 0,0 km/h (0 Bft) 95,74 %
16.03.2020 13:44 17,4 C 21,1 C 16,7 C 63 % 1020,2 hPa 0,0 l/m 2 min 0 min 700 W/m 16,1 km/h (3 Bft) 95,74 %
16.03.2020 13:46 17,5 C 21,7 C 16,7 C 63 % 1020,2 hPa 0,0 l/m 2 min 0 min 696 W/m 0,0 km/h (0 Bft) 97,87 %
16.03.2020 13:48 17,5 C 22,8 C 16,7 C 63 % 1020,2 hPa 0,0 l/m 2 min 0 min 693 W/m 0,0 km/h (0 Bft) 95,65 %
16.03.2020 13:50 17,5 C 23,9 C 16,7 C 63 % 1020,3 hPa 0,0 l/m 2 min 0 min 721 W/m 0,0 km/h (0 Bft) 97,87 %
16.03.2020 13:52 17,6 C 25,0 C 16,7 C 64 % 1020,2 hPa 0,0 l/m 2 min 0 min 739 W/m 0,0 km/h (0 Bft) 97,87 %
16.03.2020 13:54 17,7 C 24,4 C 16,7 C 64 % 1020,3 hPa 0,0 l/m 2 min 0 min 735 W/m 0,0 km/h (0 Bft) 97,87 %
16.03.2020 13:56 17,7 C 25,0 C 16,7 C 63 % 1020,3 hPa 0,0 l/m 2 min 0 min 719 W/m 0,0 km/h (0 Bft) 95,74 %
16.03.2020 13:58 17,8 C 23,9 C 16,7 C 63 % 1020,3 hPa 0,0 l/m 2 min 0 min 718 W/m 0,0 km/h (0 Bft) 97,62 %
16.03.2020 14:00 17,8 C 22,2 C 16,7 C 63 % 1020,3 hPa 0,0 l/m 2 min 0 min 736 W/m 0,0 km/h (0 Bft) 97,87 %
16.03.2020 14:02 17,8 C 20,6 C 16,7 C 62 % 1020,3 hPa 0,0 l/m 2 min 0 min 618 W/m 0,0 km/h (0 Bft) 95,74 %
16.03.2020 14:04 17,8 C 21,7 C 17,2 C 63 % 1020,2 hPa 0,0 l/m 2 min 0 min 610 W/m 0,0 km/h (0 Bft) 98,00 %
16.03.2020 14:06 17,8 C 22,2 C 16,7 C 63 % 1020,3 hPa 0,0 l/m 2 min 0 min 605 W/m 0,0 km/h (0 Bft) 97,87 %
16.03.2020 14:08 17,8 C 22,2 C 16,7 C 62 % 1020,3 hPa 0,0 l/m 2 min 0 min 596 W/m 0,0 km/h (0 Bft) 97,87 %
16.03.2020 14:10 17,8 C 22,8 C 17,2 C 63 % 1020,3 hPa 0,0 l/m 2 min 0 min 778 W/m 0,0 km/h (0 Bft) 97,92 %
16.03.2020 14:12 17,9 C 23,9 C 17,2 C 64 % 1020,4 hPa 0,0 l/m 2 min 0 min 743 W/m 0,0 km/h (0 Bft) 97,83 %
16.03.2020 14:14 18,0 C 23,3 C 17,2 C 63 % 1020,4 hPa 0,0 l/m 2 min 0 min 754 W/m 0,0 km/h (0 Bft) 97,87 %
16.03.2020 14:16 18,1 C 23,9 C 17,8 C 63 % 1020,4 hPa 0,0 l/m 2 min 0 min 567 W/m 0,0 km/h (0 Bft) 100,00 %
16.03.2020 14:18 18,1 C 21,1 C 17,8 C 62 % 1020,4 hPa 0,0 l/m 2 min 0 min 722 W/m 0,0 km/h (0 Bft) 100,00 %
16.03.2020 14:20 18,1 C 18,9 C 16,7 C 60 % 1020,4 hPa 0,0 l/m 2 min 0 min 327 W/m 0,0 km/h (0 Bft) 97,87 %
16.03.2020 14:22 18,1 C 19,4 C 16,7 C 60 % 1020,4 hPa 0,0 l/m 2 min 0 min 361 W/m 0,0 km/h (0 Bft) 95,74 %
16.03.2020 14:24 18,0 C 19,4 C 16,7 C 60 % 1020,4 hPa 0,0 l/m 2 min 0 min 391 W/m 0,0 km/h (0 Bft) 100,00 %
16.03.2020 14:26 17,9 C 18,9 C 16,7 C 62 % 1020,5 hPa 0,0 l/m 2 min 0 min 409 W/m 6,4 km/h (2 Bft) 100,00 %
16.03.2020 14:28 17,9 C 20,0 C 17,2 C 64 % 1020,5 hPa 0,0 l/m 2 min 0 min 458 W/m 9,7 km/h (2 Bft) 97,92 %
16.03.2020 14:30 17,9 C 21,7 C 17,2 C 64 % 1020,5 hPa 0,0 l/m 2 min 0 min 533 W/m 6,4 km/h (2 Bft) 97,92 %
16.03.2020 14:32 17,9 C 20,6 C 17,2 C 62 % 1020,4 hPa 0,0 l/m 2 min 0 min 494 W/m 12,9 km/h (3 Bft) 95,83 %
16.03.2020 14:34 17,9 C 21,7 C 17,2 C 63 % 1020,5 hPa 0,0 l/m 2 min 0 min 554 W/m 12,9 km/h (3 Bft) 97,87 %
16.03.2020 14:36 18,0 C 21,1 C 17,2 C 61 % 1020,5 hPa 0,0 l/m 2 min 0 min 549 W/m 0,0 km/h (0 Bft) 93,75 %
16.03.2020 14:38 17,9 C 21,1 C 17,2 C 61 % 1020,5 hPa 0,0 l/m 2 min 0 min 476 W/m 0,0 km/h (0 Bft) 93,62 %
16.03.2020 14:40 18,0 C 21,1 C 17,2 C 61 % 1020,5 hPa 0,0 l/m 2 min 0 min 483 W/m 0,0 km/h (0 Bft) 93,62 %
16.03.2020 14:42 17,9 C 20,6 C 16,7 C 63 % 1020,5 hPa 0,0 l/m 2 min 0 min 420 W/m 0,0 km/h (0 Bft) 93,62 %
16.03.2020 14:44 17,9 C 20,0 C 16,7 C 62 % 1020,5 hPa 0,0 l/m 2 min 0 min 303 W/m 0,0 km/h (0 Bft) 95,74 %
16.03.2020 14:46 17,9 C 20,0 C 16,7 C 63 % 1020,5 hPa 0,0 l/m 2 min 0 min 355 W/m 0,0 km/h (0 Bft) 95,65 %
16.03.2020 14:48 17,9 C 20,0 C 16,7 C 63 % 1020,6 hPa 0,0 l/m 2 min 0 min 331 W/m 0,0 km/h (0 Bft) 95,74 %
16.03.2020 14:50 17,9 C 20,6 C 16,7 C 64 % 1020,6 hPa 0,0 l/m 2 min 0 min 326 W/m 0,0 km/h (0 Bft) 97,87 %
16.03.2020 14:52 17,9 C 21,1 C 16,7 C 64 % 1020,6 hPa 0,0 l/m 2 min 0 min 299 W/m 0,0 km/h (0 Bft) 95,24 %
16.03.2020 14:54 17,9 C 21,1 C 16,7 C 65 % 1020,6 hPa 0,0 l/m 2 min 0 min 344 W/m 9,7 km/h (2 Bft) 95,74 %
16.03.2020 14:56 17,9 C 21,7 C 16,7 C 65 % 1020,6 hPa 0,0 l/m 2 min 0 min 454 W/m 0,0 km/h (0 Bft) 95,74 %
16.03.2020 14:58 18,0 C 21,7 C 16,7 C 65 % 1020,6 hPa 0,0 l/m 2 min 0 min 436 W/m 0,0 km/h (0 Bft) 96,00 %
16.03.2020 15:00 18,0 C 21,1 C 17,2 C 65 % 1020,6 hPa 0,0 l/m 2 min 0 min 388 W/m 0,0 km/h (0 Bft) 95,74 %
16.03.2020 15:02 18,0 C 20,6 C 16,7 C 64 % 1020,6 hPa 0,0 l/m 2 min 0 min 273 W/m 0,0 km/h (0 Bft) 95,83 %
16.03.2020 15:04 18,0 C 20,6 C 16,7 C 64 % 1020,7 hPa 0,0 l/m 2 min 0 min 308 W/m 0,0 km/h (0 Bft) 95,74 %
16.03.2020 15:06 18,0 C 21,1 C 16,7 C 65 % 1020,7 hPa 0,0 l/m 2 min 0 min 327 W/m 0,0 km/h (0 Bft) 95,74 %
16.03.2020 15:08 18,1 C 21,1 C 16,7 C 65 % 1020,7 hPa 0,0 l/m 2 min 0 min 420 W/m 12,9 km/h (3 Bft) 95,74 %
16.03.2020 15:10 18,0 C 20,6 C 16,7 C 64 % 1020,7 hPa 0,0 l/m 2 min 0 min 394 W/m 9,7 km/h (2 Bft) 95,12 %
16.03.2020 15:12 18,0 C 21,1 C 16,7 C 65 % 1020,7 hPa 0,0 l/m 2 min 0 min 373 W/m 9,7 km/h (2 Bft) 89,58 %
16.03.2020 15:14 18,0 C 22,2 C 16,7 C 65 % 1020,7 hPa 0,0 l/m 2 min 0 min 432 W/m 0,0 km/h (0 Bft) 95,74 %
16.03.2020 15:16 18,0 C 21,7 C 16,7 C 64 % 1020,8 hPa 0,0 l/m 2 min 0 min 477 W/m 0,0 km/h (0 Bft) 93,75 %
16.03.2020 15:18 18,0 C 21,1 C 16,7 C 63 % 1020,8 hPa 0,0 l/m 2 min 0 min 440 W/m 0,0 km/h (0 Bft) 97,87 %
16.03.2020 15:20 18,1 C 20,6 C 16,7 C 64 % 1020,8 hPa 0,0 l/m 2 min 0 min 259 W/m 0,0 km/h (0 Bft) 97,92 %
16.03.2020 15:22 18,0 C 19,4 C 16,1 C 65 % 1020,9 hPa 0,0 l/m 0 min 0 min 181 W/m 0,0 km/h (0 Bft) 97,92 %
16.03.2020 15:24 17,9 C 18,9 C 16,1 C 64 % 1020,9 hPa 0,0 l/m 0 min 0 min 170 W/m 0,0 km/h (0 Bft) 97,87 %
16.03.2020 15:26 17,9 C 18,3 C 16,1 C 64 % 1020,9 hPa 0,0 l/m 0 min 0 min 187 W/m 0,0 km/h (0 Bft) 97,87 %
16.03.2020 15:28 17,8 C 17,8 C 16,1 C 65 % 1020,8 hPa 0,0 l/m 0 min 0 min 197 W/m 0,0 km/h (0 Bft) 97,87 %
16.03.2020 15:30 17,8 C 17,8 C 16,1 C 64 % 1020,8 hPa 0,0 l/m 0 min 0 min 181 W/m 0,0 km/h (0 Bft) 97,87 %
16.03.2020 15:32 17,7 C 17,2 C 15,6 C 65 % 1020,9 hPa 0,0 l/m 0 min 0 min 165 W/m 0,0 km/h (0 Bft) 97,87 %
16.03.2020 15:34 17,6 C 17,2 C 15,6 C 66 % 1020,8 hPa 0,0 l/m 0 min 0 min 165 W/m 0,0 km/h (0 Bft) 97,83 %
16.03.2020 15:36 17,6 C 17,2 C 15,6 C 66 % 1020,9 hPa 0,0 l/m 0 min 0 min 171 W/m 0,0 km/h (0 Bft) 97,87 %
16.03.2020 15:38 17,4 C 17,2 C 15,6 C 66 % 1020,9 hPa 0,0 l/m 0 min 0 min 161 W/m 0,0 km/h (0 Bft) 97,62 %
16.03.2020 15:40 17,3 C 18,3 C 16,7 C 66 % 1020,9 hPa 0,0 l/m 0 min 0 min 91 W/m 12,9 km/h (3 Bft) 95,83 %
16.03.2020 15:42 17,3 C 17,8 C 16,7 C 66 % 1020,9 hPa 0,0 l/m 0 min 0 min 116 W/m 12,9 km/h (3 Bft) 97,87 %
16.03.2020 15:44 17,2 C 17,2 C 16,1 C 66 % 1021,0 hPa 0,0 l/m 0 min 0 min 163 W/m 16,1 km/h (3 Bft) 97,92 %
16.03.2020 15:46 17,1 C 16,7 C 15,6 C 66 % 1021,0 hPa 0,0 l/m 0 min 0 min 160 W/m 16,1 km/h (3 Bft) 95,83 %
16.03.2020 15:48 17,0 C 15,6 C 15,0 C 70 % 1021,0 hPa 0,0 l/m 0 min 0 min 161 W/m 3,2 km/h (1 Bft) 100,00 %
16.03.2020 15:50 16,9 C 16,7 C 15,0 C 71 % 1021,0 hPa 0,0 l/m 2 min 0 min 263 W/m 19,3 km/h (3 Bft) 100,00 %
16.03.2020 15:52 16,8 C 17,2 C 16,1 C 72 % 1021,1 hPa 0,0 l/m 2 min 0 min 367 W/m 22,5 km/h (4 Bft) 100,00 %
16.03.2020 15:54 16,6 C 17,8 C 16,7 C 73 % 1021,2 hPa 0,0 l/m 2 min 0 min 397 W/m 29,0 km/h (5 Bft) 100,00 %
16.03.2020 15:56 16,6 C 18,3 C 16,7 C 73 % 1021,3 hPa 0,0 l/m 2 min 0 min 414 W/m 19,3 km/h (3 Bft) 97,83 %
16.03.2020 15:58 16,5 C 18,3 C 16,7 C 74 % 1021,3 hPa 0,0 l/m 2 min 0 min 337 W/m 12,9 km/h (3 Bft) 100,00 %
16.03.2020 16:00 16,4 C 17,2 C 16,1 C 74 % 1021,4 hPa 0,0 l/m 2 min 0 min 329 W/m 9,7 km/h (2 Bft) 100,00 %
16.03.2020 16:02 16,3 C 16,7 C 15,6 C 74 % 1021,4 hPa 0,0 l/m 2 min 0 min 198 W/m 6,4 km/h (2 Bft) 96,00 %
16.03.2020 16:04 16,2 C 16,1 C 15,6 C 74 % 1021,5 hPa 0,0 l/m 0 min 0 min 169 W/m 0,0 km/h (0 Bft) 97,83 %
16.03.2020 16:06 16,1 C 15,6 C 15,0 C 74 % 1021,5 hPa 0,0 l/m 0 min 0 min 157 W/m 16,1 km/h (3 Bft) 97,87 %
16.03.2020 16:08 16,0 C 17,2 C 16,1 C 74 % 1021,5 hPa 0,0 l/m 2 min 0 min 278 W/m 9,7 km/h (2 Bft) 97,92 %
16.03.2020 16:10 15,9 C 17,8 C 16,1 C 75 % 1021,6 hPa 0,0 l/m 2 min 0 min 379 W/m 19,3 km/h (3 Bft) 97,92 %
16.03.2020 16:12 15,9 C 18,3 C 16,7 C 75 % 1021,6 hPa 0,0 l/m 2 min 0 min 369 W/m 19,3 km/h (3 Bft) 97,87 %
16.03.2020 16:14 15,9 C 18,3 C 18,3 C 75 % 1021,6 hPa 0,0 l/m 2 min 0 min 367 W/m 22,5 km/h (4 Bft) 97,87 %
16.03.2020 16:16 15,9 C 18,3 C 18,3 C 76 % 1021,6 hPa 0,0 l/m 2 min 0 min 354 W/m 3,2 km/h (1 Bft) 97,87 %
16.03.2020 16:18 15,8 C 17,8 C 18,3 C 75 % 1021,6 hPa 0,0 l/m 2 min 0 min 342 W/m 9,7 km/h (2 Bft) 97,87 %
16.03.2020 16:20 15,8 C 17,8 C 17,2 C 75 % 1021,6 hPa 0,0 l/m 2 min 0 min 325 W/m 22,5 km/h (4 Bft) 95,65 %
16.03.2020 16:22 15,7 C 17,8 C 16,7 C 76 % 1021,6 hPa 0,0 l/m 2 min 0 min 316 W/m 25,7 km/h (4 Bft) 97,87 %
16.03.2020 16:24 15,7 C 18,3 C 16,7 C 76 % 1021,6 hPa 0,0 l/m 2 min 0 min 306 W/m 9,7 km/h (2 Bft) 97,87 %
16.03.2020 16:26 15,7 C 17,8 C 16,1 C 76 % 1021,6 hPa 0,0 l/m 2 min 0 min 295 W/m 19,3 km/h (3 Bft) 97,87 %
16.03.2020 16:28 15,7 C 17,8 C 15,6 C 76 % 1021,6 hPa 0,0 l/m 2 min 0 min 290 W/m 9,7 km/h (2 Bft) 97,56 %
16.03.2020 16:30 15,6 C 17,2 C 15,0 C 76 % 1021,6 hPa 0,0 l/m 2 min 0 min 288 W/m 6,4 km/h (2 Bft) 97,92 %
16.03.2020 16:32 15,6 C 17,2 C 15,0 C 76 % 1021,6 hPa 0,0 l/m 2 min 0 min 283 W/m 6,4 km/h (2 Bft) 95,92 %
16.03.2020 16:34 15,6 C 17,2 C 14,4 C 76 % 1021,7 hPa 0,0 l/m 2 min 0 min 279 W/m 9,7 km/h (2 Bft) 97,87 %
16.03.2020 16:36 15,5 C 16,7 C 14,4 C 75 % 1021,7 hPa 0,0 l/m 2 min 0 min 278 W/m 16,1 km/h (3 Bft) 97,92 %
16.03.2020 16:38 15,5 C 17,2 C 13,9 C 76 % 1021,7 hPa 0,0 l/m 2 min 0 min 274 W/m 16,1 km/h (3 Bft) 95,74 %
16.03.2020 16:40 15,4 C 17,2 C 14,4 C 76 % 1021,7 hPa 0,0 l/m 2 min 0 min 268 W/m 16,1 km/h (3 Bft) 97,92 %
16.03.2020 16:42 15,4 C 17,2 C 13,9 C 76 % 1021,8 hPa 0,0 l/m 2 min 0 min 250 W/m 9,7 km/h (2 Bft) 97,83 %
16.03.2020 16:44 15,4 C 16,1 C 13,9 C 76 % 1021,8 hPa 0,0 l/m 0 min 0 min 131 W/m 0,0 km/h (0 Bft) 97,87 %
16.03.2020 16:46 15,3 C 15,0 C 13,9 C 76 % 1021,8 hPa 0,0 l/m 0 min 0 min 80 W/m 0,0 km/h (0 Bft) 97,87 %
16.03.2020 16:48 15,3 C 14,4 C 13,3 C 76 % 1021,8 hPa 0,0 l/m 0 min 0 min 91 W/m 0,0 km/h (0 Bft) 97,87 %
16.03.2020 16:50 15,2 C 14,4 C 13,3 C 76 % 1021,8 hPa 0,0 l/m 0 min 0 min 76 W/m 0,0 km/h (0 Bft) 100,00 %
16.03.2020 16:52 15,2 C 13,9 C 12,8 C 76 % 1021,8 hPa 0,0 l/m 0 min 0 min 76 W/m 6,4 km/h (2 Bft) 100,00 %
16.03.2020 16:54 15,1 C 14,4 C 12,8 C 77 % 1021,8 hPa 0,0 l/m 0 min 0 min 88 W/m 6,4 km/h (2 Bft) 95,65 %
16.03.2020 16:56 15,0 C 15,0 C 12,8 C 77 % 1021,8 hPa 0,0 l/m 2 min 0 min 187 W/m 0,0 km/h (0 Bft) 97,62 %
16.03.2020 16:58 14,9 C 14,4 C 13,3 C 77 % 1021,7 hPa 0,0 l/m 0 min 0 min 92 W/m 3,2 km/h (1 Bft) 100,00 %
16.03.2020 17:00 14,9 C 14,4 C 13,3 C 77 % 1021,8 hPa 0,0 l/m 0 min 0 min 84 W/m 6,4 km/h (2 Bft) 100,00 %
16.03.2020 17:02 14,9 C 13,9 C 12,8 C 77 % 1021,8 hPa 0,0 l/m 0 min 0 min 80 W/m 0,0 km/h (0 Bft) 100,00 %
16.03.2020 17:04 14,8 C 13,9 C 12,8 C 77 % 1021,8 hPa 0,0 l/m 0 min 0 min 80 W/m 0,0 km/h (0 Bft) 97,87 %
16.03.2020 17:06 14,7 C 13,9 C 12,8 C 77 % 1021,8 hPa 0,0 l/m 0 min 0 min 77 W/m 0,0 km/h (0 Bft) 97,83 %
16.03.2020 17:08 14,7 C 13,9 C 12,8 C 77 % 1021,8 hPa 0,0 l/m 0 min 0 min 76 W/m 0,0 km/h (0 Bft) 100,00 %
16.03.2020 17:10 14,7 C 13,9 C 12,8 C 77 % 1021,8 hPa 0,0 l/m 0 min 0 min 73 W/m 0,0 km/h (0 Bft) 100,00 %
16.03.2020 17:12 14,6 C 13,9 C 12,8 C 77 % 1021,8 hPa 0,0 l/m 0 min 0 min 72 W/m 3,2 km/h (1 Bft) 100,00 %
16.03.2020 17:14 14,6 C 13,9 C 12,8 C 77 % 1021,8 hPa 0,0 l/m 0 min 0 min 72 W/m 0,0 km/h (0 Bft) 100,00 %
16.03.2020 17:16 14,6 C 13,9 C 12,8 C 77 % 1021,9 hPa 0,0 l/m 0 min 0 min 70 W/m 0,0 km/h (0 Bft) 100,00 %
16.03.2020 17:18 14,5 C 13,9 C 12,8 C 77 % 1022,0 hPa 0,0 l/m 0 min 0 min 73 W/m 3,2 km/h (1 Bft) 100,00 %
16.03.2020 17:20 14,4 C 13,9 C 12,8 C 77 % 1022,0 hPa 0,0 l/m 0 min 0 min 74 W/m 0,0 km/h (0 Bft) 100,00 %
16.03.2020 17:22 14,4 C 13,9 C 12,8 C 77 % 1021,9 hPa 0,0 l/m 0 min 0 min 69 W/m 0,0 km/h (0 Bft) 97,92 %
16.03.2020 17:24 14,4 C 13,9 C 12,8 C 77 % 1022,0 hPa 0,0 l/m 0 min 0 min 66 W/m 0,0 km/h (0 Bft) 97,87 %
16.03.2020 17:26 14,3 C 13,9 C 12,8 C 78 % 1022,0 hPa 0,0 l/m 0 min 0 min 64 W/m 0,0 km/h (0 Bft) 97,83 %
16.03.2020 17:28 14,3 C 13,3 C 12,8 C 78 % 1022,0 hPa 0,0 l/m 0 min 0 min 61 W/m 3,2 km/h (1 Bft) 95,83 %
16.03.2020 17:30 14,3 C 13,3 C 12,8 C 78 % 1022,1 hPa 0,0 l/m 0 min 0 min 57 W/m 0,0 km/h (0 Bft) 97,92 %
16.03.2020 17:32 14,3 C 13,3 C 12,2 C 78 % 1022,0 hPa 0,0 l/m 0 min 0 min 53 W/m 0,0 km/h (0 Bft) 97,92 %
16.03.2020 17:34 14,3 C 13,3 C 12,2 C 78 % 1022,0 hPa 0,0 l/m 0 min 0 min 50 W/m 0,0 km/h (0 Bft) 95,74 %
16.03.2020 17:36 14,3 C 13,3 C 12,2 C 78 % 1022,1 hPa 0,0 l/m 0 min 0 min 48 W/m 0,0 km/h (0 Bft) 97,87 %
16.03.2020 17:38 14,2 C 13,3 C 12,2 C 78 % 1022,1 hPa 0,0 l/m 0 min 0 min 47 W/m 0,0 km/h (0 Bft) 97,87 %
16.03.2020 17:40 14,1 C 12,8 C 12,2 C 78 % 1022,1 hPa 0,0 l/m 0 min 0 min 46 W/m 0,0 km/h (0 Bft) 53,49 %
16.03.2020 17:42 14,1 C 12,8 C 12,2 C 78 % 1022,1 hPa 0,0 l/m 0 min 0 min 41 W/m 0,0 km/h (0 Bft) 97,67 %
16.03.2020 17:44 14,1 C 12,8 C 12,2 C 78 % 1022,1 hPa 0,0 l/m 0 min 0 min 37 W/m 0,0 km/h (0 Bft) 97,87 %
16.03.2020 17:46 14,0 C 12,8 C 11,7 C 78 % 1022,2 hPa 0,0 l/m 0 min 0 min 33 W/m 0,0 km/h (0 Bft) 97,87 %
16.03.2020 17:48 14,0 C 12,8 C 11,7 C 78 % 1022,1 hPa 0,0 l/m 0 min 0 min 31 W/m 0,0 km/h (0 Bft) 97,62 %
16.03.2020 17:50 13,9 C 12,2 C 11,7 C 78 % 1022,2 hPa 0,0 l/m 0 min 0 min 27 W/m 0,0 km/h (0 Bft) 97,87 %
16.03.2020 17:52 13,9 C 12,2 C 11,7 C 78 % 1022,2 hPa 0,0 l/m 0 min 0 min 26 W/m 0,0 km/h (0 Bft) 97,92 %
16.03.2020 17:54 13,8 C 12,2 C 11,7 C 78 % 1022,2 hPa 0,0 l/m 0 min 0 min 25 W/m 0,0 km/h (0 Bft) 95,74 %
16.03.2020 17:56 13,8 C 12,2 C 11,1 C 78 % 1022,2 hPa 0,0 l/m 0 min 0 min 24 W/m 0,0 km/h (0 Bft) 95,83 %
16.03.2020 17:58 13,8 C 12,2 C 11,1 C 78 % 1022,2 hPa 0,0 l/m 0 min 0 min 23 W/m 0,0 km/h (0 Bft) 97,96 %
16.03.2020 18:00 13,7 C 11,7 C 11,1 C 78 % 1022,2 hPa 0,0 l/m 0 min 0 min 24 W/m 0,0 km/h (0 Bft) 95,74 %
16.03.2020 18:02 13,7 C 11,7 C 11,1 C 79 % 1022,2 hPa 0,0 l/m 0 min 0 min 25 W/m 0,0 km/h (0 Bft) 95,74 %
16.03.2020 18:04 13,6 C 11,7 C 11,1 C 79 % 1022,2 hPa 0,0 l/m 0 min 0 min 25 W/m 0,0 km/h (0 Bft) 95,65 %
16.03.2020 18:08 13,6 C 11,7 C 11,1 C 79 % 1022,3 hPa 0,0 l/m 0 min 0 min 25 W/m 0,0 km/h (0 Bft) 97,87 %
16.03.2020 18:10 13,5 C 11,7 C 10,6 C 79 % 1022,3 hPa 0,0 l/m 0 min 0 min 25 W/m 0,0 km/h (0 Bft) 93,62 %
16.03.2020 18:12 13,4 C 11,7 C 10,6 C 79 % 1022,3 hPa 0,0 l/m 0 min 0 min 21 W/m 0,0 km/h (0 Bft) 95,12 %
16.03.2020 18:14 13,4 C 11,7 C 10,6 C 79 % 1022,4 hPa 0,0 l/m 0 min 0 min 18 W/m 0,0 km/h (0 Bft) 95,74 %
16.03.2020 18:16 13,3 C 11,7 C 10,6 C 79 % 1022,4 hPa 0,0 l/m 0 min 0 min 15 W/m 0,0 km/h (0 Bft) 95,83 %
16.03.2020 18:18 13,3 C 11,7 C 10,6 C 79 % 1022,5 hPa 0,0 l/m 0 min 0 min 13 W/m 0,0 km/h (0 Bft) 95,83 %
16.03.2020 18:20 13,3 C 11,7 C 10,6 C 80 % 1022,5 hPa 0,0 l/m 0 min 0 min 12 W/m 0,0 km/h (0 Bft) 95,83 %
16.03.2020 18:22 13,2 C 11,7 C 10,6 C 80 % 1022,5 hPa 0,0 l/m 0 min 0 min 11 W/m 0,0 km/h (0 Bft) 95,83 %
16.03.2020 18:24 13,2 C 11,1 C 10,6 C 80 % 1022,6 hPa 0,0 l/m 0 min 0 min 11 W/m 0,0 km/h (0 Bft) 95,65 %
16.03.2020 18:26 13,1 C 11,1 C 10,6 C 80 % 1022,6 hPa 0,0 l/m 0 min 0 min 11 W/m 0,0 km/h (0 Bft) 95,83 %
16.03.2020 18:28 13,1 C 11,1 C 10,6 C 80 % 1022,6 hPa 0,0 l/m 0 min 0 min 9 W/m 0,0 km/h (0 Bft) 97,87 %
16.03.2020 18:30 13,0 C 11,1 C 10,6 C 80 % 1022,7 hPa 0,0 l/m 0 min 0 min 9 W/m 0,0 km/h (0 Bft) 95,74 %
16.03.2020 18:32 13,0 C 11,1 C 10,0 C 81 % 1022,7 hPa 0,0 l/m 0 min 0 min 7 W/m 0,0 km/h (0 Bft) 97,87 %
16.03.2020 18:34 12,9 C 11,1 C 10,0 C 81 % 1022,7 hPa 0,0 l/m 0 min 0 min 7 W/m 0,0 km/h (0 Bft) 97,87 %
16.03.2020 18:36 12,9 C 11,1 C 10,0 C 81 % 1022,7 hPa 0,0 l/m 0 min 0 min 7 W/m 0,0 km/h (0 Bft) 97,87 %
16.03.2020 18:38 12,8 C 11,1 C 10,0 C 81 % 1022,7 hPa 0,0 l/m 0 min 0 min 5 W/m 0,0 km/h (0 Bft) 97,56 %
16.03.2020 18:40 12,8 C 11,1 C 10,0 C 81 % 1022,7 hPa 0,0 l/m 0 min 0 min 5 W/m 0,0 km/h (0 Bft) 97,92 %
16.03.2020 18:42 12,8 C 11,1 C 10,0 C 81 % 1022,7 hPa 0,0 l/m 0 min 0 min 2 W/m 0,0 km/h (0 Bft) 97,92 %
16.03.2020 18:44 12,7 C 11,1 C 10,0 C 81 % 1022,8 hPa 0,0 l/m 0 min 0 min 0 W/m 0,0 km/h (0 Bft) 97,87 %
16.03.2020 18:46 12,7 C 11,1 C 10,0 C 81 % 1022,8 hPa 0,0 l/m 0 min 0 min 0 W/m 0,0 km/h (0 Bft) 100,00 %
16.03.2020 18:48 12,7 C 10,6 C 10,0 C 81 % 1022,9 hPa 0,0 l/m 0 min 0 min 0 W/m 0,0 km/h (0 Bft) 100,00 %
16.03.2020 18:50 12,6 C 10,6 C 10,0 C 81 % 1022,9 hPa 0,0 l/m 0 min 0 min 0 W/m 0,0 km/h (0 Bft) 100,00 %
16.03.2020 18:52 12,6 C 10,6 C 10,0 C 81 % 1023,0 hPa 0,0 l/m 0 min 0 min 0 W/m 0,0 km/h (0 Bft) 100,00 %
16.03.2020 18:54 12,6 C 10,6 C 9,4 C 82 % 1023,1 hPa 0,0 l/m 0 min 0 min 0 W/m 0,0 km/h (0 Bft) 100,00 %
16.03.2020 18:56 12,5 C 10,6 C 9,4 C 82 % 1023,1 hPa 0,0 l/m 0 min 0 min 0 W/m 0,0 km/h (0 Bft) 100,00 %
16.03.2020 18:58 12,4 C 10,6 C 9,4 C 82 % 1023,1 hPa 0,0 l/m 0 min 0 min 0 W/m 0,0 km/h (0 Bft) 100,00 %
16.03.2020 19:00 12,4 C 10,0 C 9,4 C 82 % 1023,1 hPa 0,0 l/m 0 min 0 min 0 W/m 0,0 km/h (0 Bft) 100,00 %
16.03.2020 19:02 12,3 C 10,6 C 9,4 C 83 % 1023,2 hPa 0,0 l/m 0 min 0 min 0 W/m 0,0 km/h (0 Bft) 100,00 %
16.03.2020 19:04 12,3 C 10,6 C 9,4 C 83 % 1023,2 hPa 0,0 l/m 0 min 0 min 0 W/m 0,0 km/h (0 Bft) 97,73 %
16.03.2020 19:06 12,2 C 10,6 C 9,4 C 83 % 1023,2 hPa 0,0 l/m 0 min 0 min 0 W/m 0,0 km/h (0 Bft) 97,92 %
16.03.2020 19:08 12,2 C 10,6 C 9,4 C 83 % 1023,3 hPa 0,0 l/m 0 min 0 min 0 W/m 6,4 km/h (2 Bft) 97,92 %
16.03.2020 19:10 12,1 C 10,6 C 10,0 C 84 % 1023,3 hPa 0,0 l/m 0 min 0 min 0 W/m 0,0 km/h (0 Bft) 97,87 %
16.03.2020 19:12 12,1 C 10,6 C 10,0 C 84 % 1023,3 hPa 0,0 l/m 0 min 0 min 0 W/m 0,0 km/h (0 Bft) 95,83 %
16.03.2020 19:14 12,1 C 10,6 C 10,0 C 84 % 1023,3 hPa 0,0 l/m 0 min 0 min 0 W/m 0,0 km/h (0 Bft) 97,83 %
16.03.2020 19:16 12,0 C 10,6 C 10,0 C 84 % 1023,3 hPa 0,0 l/m 0 min 0 min 0 W/m 3,2 km/h (1 Bft) 97,87 %
16.03.2020 19:18 11,9 C 10,6 C 10,0 C 84 % 1023,4 hPa 0,0 l/m 0 min 0 min 0 W/m 0,0 km/h (0 Bft) 97,87 %
16.03.2020 19:20 11,9 C 10,6 C 10,0 C 84 % 1023,4 hPa 0,0 l/m 0 min 0 min 0 W/m 0,0 km/h (0 Bft) 97,87 %
16.03.2020 19:22 11,9 C 10,6 C 10,0 C 84 % 1023,4 hPa 0,0 l/m 0 min 0 min 0 W/m 0,0 km/h (0 Bft) 97,87 %
16.03.2020 19:24 11,9 C 10,6 C 10,0 C 84 % 1023,4 hPa 0,0 l/m 0 min 0 min 0 W/m 0,0 km/h (0 Bft) 97,87 %
16.03.2020 19:26 11,8 C 10,6 C 10,0 C 84 % 1023,4 hPa 0,0 l/m 0 min 0 min 0 W/m 0,0 km/h (0 Bft) 97,83 %
16.03.2020 19:28 11,8 C 10,6 C 10,0 C 84 % 1023,5 hPa 0,0 l/m 0 min 0 min 0 W/m 0,0 km/h (0 Bft) 97,87 %
16.03.2020 19:30 11,8 C 10,6 C 10,0 C 84 % 1023,5 hPa 0,0 l/m 0 min 0 min 0 W/m 0,0 km/h (0 Bft) 95,74 %
16.03.2020 19:32 11,8 C 10,6 C 10,0 C 84 % 1023,5 hPa 0,0 l/m 0 min 0 min 0 W/m 0,0 km/h (0 Bft) 93,62 %
16.03.2020 19:34 11,8 C 10,6 C 10,0 C 84 % 1023,6 hPa 0,0 l/m 0 min 0 min 0 W/m 0,0 km/h (0 Bft) 97,87 %
16.03.2020 19:36 11,7 C 10,6 C 10,0 C 84 % 1023,6 hPa 0,0 l/m 0 min 0 min 0 W/m 3,2 km/h (1 Bft) 97,83 %
16.03.2020 19:38 11,7 C 10,6 C 10,0 C 84 % 1023,6 hPa 0,0 l/m 0 min 0 min 0 W/m 0,0 km/h (0 Bft) 97,87 %
16.03.2020 19:40 11,7 C 10,6 C 10,0 C 84 % 1023,6 hPa 0,0 l/m 0 min 0 min 0 W/m 0,0 km/h (0 Bft) 97,87 %
16.03.2020 19:42 11,7 C 10,6 C 10,0 C 84 % 1023,6 hPa 0,0 l/m 0 min 0 min 0 W/m 0,0 km/h (0 Bft) 97,87 %
16.03.2020 19:44 11,6 C 10,6 C 9,4 C 85 % 1023,7 hPa 0,0 l/m 0 min 0 min 0 W/m 0,0 km/h (0 Bft) 97,87 %
16.03.2020 19:46 11,6 C 10,0 C 9,4 C 84 % 1023,7 hPa 0,0 l/m 0 min 0 min 0 W/m 0,0 km/h (0 Bft) 97,87 %
16.03.2020 19:48 11,6 C 10,0 C 9,4 C 84 % 1023,7 hPa 0,0 l/m 0 min 0 min 0 W/m 0,0 km/h (0 Bft) 93,48 %
16.03.2020 19:50 11,6 C 10,0 C 9,4 C 84 % 1023,7 hPa 0,0 l/m 0 min 0 min 0 W/m 0,0 km/h (0 Bft) 97,87 %
16.03.2020 19:52 11,6 C 10,0 C 9,4 C 84 % 1023,7 hPa 0,0 l/m 0 min 0 min 0 W/m 0,0 km/h (0 Bft) 97,87 %
16.03.2020 19:54 11,6 C 10,0 C 9,4 C 84 % 1023,7 hPa 0,0 l/m 0 min 0 min 0 W/m 0,0 km/h (0 Bft) 97,87 %
16.03.2020 19:56 11,5 C 10,0 C 9,4 C 84 % 1023,8 hPa 0,0 l/m 0 min 0 min 0 W/m 0,0 km/h (0 Bft) 95,74 %
16.03.2020 19:58 11,5 C 10,0 C 8,9 C 84 % 1023,8 hPa 0,0 l/m 0 min 0 min 0 W/m 0,0 km/h (0 Bft) 97,87 %
16.03.2020 20:00 11,4 C 10,0 C 8,9 C 84 % 1023,8 hPa 0,0 l/m 0 min 0 min 0 W/m 0,0 km/h (0 Bft) 97,83 %
16.03.2020 20:02 11,4 C 10,0 C 8,9 C 84 % 1023,9 hPa 0,0 l/m 0 min 0 min 0 W/m 0,0 km/h (0 Bft) 97,87 %
16.03.2020 20:04 11,4 C 10,0 C 8,9 C 84 % 1023,9 hPa 0,0 l/m 0 min 0 min 0 W/m 0,0 km/h (0 Bft) 97,87 %
16.03.2020 20:06 11,4 C 10,0 C 8,9 C 84 % 1024,0 hPa 0,0 l/m 0 min 0 min 0 W/m 0,0 km/h (0 Bft) 100,00 %
16.03.2020 20:08 11,3 C 10,0 C 9,4 C 84 % 1024,1 hPa 0,0 l/m 0 min 0 min 0 W/m 0,0 km/h (0 Bft) 97,87 %
16.03.2020 20:09 11,3 C 10,0 C 9,4 C 84 % 1024,1 hPa 0,0 l/m 0 min 0 min 0 W/m 0,0 km/h (0 Bft) 100,00 %
16.03.2020 20:12 11,3 C 10,0 C 9,4 C 84 % 1024,1 hPa 0,0 l/m 0 min 0 min 0 W/m 0,0 km/h (0 Bft) 93,48 %
16.03.2020 20:14 11,3 C 10,0 C 9,4 C 84 % 1024,1 hPa 0,0 l/m 0 min 0 min 0 W/m 0,0 km/h (0 Bft) 100,00 %
16.03.2020 20:16 11,3 C 10,0 C 9,4 C 85 % 1024,1 hPa 0,0 l/m 0 min 0 min 0 W/m 0,0 km/h (0 Bft) 97,87 %
16.03.2020 20:18 11,2 C 10,0 C 9,4 C 85 % 1024,1 hPa 0,0 l/m 0 min 0 min 0 W/m 0,0 km/h (0 Bft) 97,87 %
16.03.2020 20:20 11,2 C 10,0 C 9,4 C 85 % 1024,2 hPa 0,0 l/m 0 min 0 min 0 W/m 0,0 km/h (0 Bft) 97,87 %
16.03.2020 20:22 11,2 C 10,0 C 9,4 C 85 % 1024,2 hPa 0,0 l/m 0 min 0 min 0 W/m 0,0 km/h (0 Bft) 95,74 %
16.03.2020 20:24 11,2 C 10,0 C 9,4 C 85 % 1024,2 hPa 0,0 l/m 0 min 0 min 0 W/m 0,0 km/h (0 Bft) 97,83 %
16.03.2020 20:26 11,2 C 10,0 C 9,4 C 85 % 1024,2 hPa 0,0 l/m 0 min 0 min 0 W/m 0,0 km/h (0 Bft) 97,87 %
16.03.2020 20:28 11,2 C 10,0 C 9,4 C 85 % 1024,3 hPa 0,0 l/m 0 min 0 min 0 W/m 0,0 km/h (0 Bft) 95,74 %
16.03.2020 20:30 11,2 C 10,0 C 9,4 C 85 % 1024,3 hPa 0,0 l/m 0 min 0 min 0 W/m 0,0 km/h (0 Bft) 97,87 %
16.03.2020 20:32 11,1 C 10,0 C 9,4 C 85 % 1024,3 hPa 0,0 l/m 0 min 0 min 0 W/m 0,0 km/h (0 Bft) 97,87 %
16.03.2020 20:34 11,1 C 10,0 C 9,4 C 85 % 1024,3 hPa 0,0 l/m 0 min 0 min 0 W/m 0,0 km/h (0 Bft) 97,87 %
16.03.2020 20:36 11,1 C 10,0 C 9,4 C 85 % 1024,3 hPa 0,0 l/m 0 min 0 min 0 W/m 0,0 km/h (0 Bft) 95,65 %
16.03.2020 20:38 11,1 C 10,0 C 9,4 C 85 % 1024,3 hPa 0,0 l/m 0 min 0 min 0 W/m 0,0 km/h (0 Bft) 97,87 %
16.03.2020 20:40 11,1 C 10,0 C 9,4 C 85 % 1024,3 hPa 0,0 l/m 0 min 0 min 0 W/m 0,0 km/h (0 Bft) 97,87 %
16.03.2020 20:42 11,1 C 10,0 C 9,4 C 85 % 1024,3 hPa 0,0 l/m 0 min 0 min 0 W/m 0,0 km/h (0 Bft) 95,74 %
16.03.2020 20:44 11,1 C 10,0 C 9,4 C 85 % 1024,4 hPa 0,0 l/m 0 min 0 min 0 W/m 0,0 km/h (0 Bft) 97,87 %
16.03.2020 20:46 11,1 C 10,0 C 9,4 C 85 % 1024,4 hPa 0,0 l/m 0 min 0 min 0 W/m 0,0 km/h (0 Bft) 95,65 %
16.03.2020 20:48 11,1 C 10,0 C 9,4 C 85 % 1024,4 hPa 0,0 l/m 0 min 0 min 0 W/m 0,0 km/h (0 Bft) 97,87 %
16.03.2020 20:50 11,1 C 10,0 C 9,4 C 85 % 1024,4 hPa 0,0 l/m 0 min 0 min 0 W/m 0,0 km/h (0 Bft) 97,87 %
16.03.2020 20:52 11,0 C 10,0 C 9,4 C 85 % 1024,4 hPa 0,0 l/m 0 min 0 min 0 W/m 0,0 km/h (0 Bft) 95,74 %
16.03.2020 20:54 11,0 C 10,0 C 9,4 C 85 % 1024,4 hPa 0,0 l/m 0 min 0 min 0 W/m 0,0 km/h (0 Bft) 100,00 %
16.03.2020 20:56 11,0 C 10,0 C 9,4 C 85 % 1024,5 hPa 0,0 l/m 0 min 0 min 0 W/m 0,0 km/h (0 Bft) 100,00 %
16.03.2020 20:58 11,0 C 10,0 C 9,4 C 85 % 1024,6 hPa 0,0 l/m 0 min 0 min 0 W/m 0,0 km/h (0 Bft) 100,00 %
16.03.2020 21:00 10,9 C 10,0 C 9,4 C 85 % 1024,6 hPa 0,0 l/m 0 min 0 min 0 W/m 0,0 km/h (0 Bft) 100,00 %
16.03.2020 21:02 10,9 C 10,0 C 9,4 C 85 % 1024,6 hPa 0,0 l/m 0 min 0 min 0 W/m 0,0 km/h (0 Bft) 97,87 %
16.03.2020 21:04 10,9 C 10,0 C 8,9 C 85 % 1024,7 hPa 0,0 l/m 0 min 0 min 0 W/m 0,0 km/h (0 Bft) 100,00 %
16.03.2020 21:06 10,9 C 10,0 C 8,9 C 85 % 1024,6 hPa 0,0 l/m 0 min 0 min 0 W/m 0,0 km/h (0 Bft) 100,00 %
16.03.2020 21:08 10,9 C 10,0 C 8,9 C 85 % 1024,7 hPa 0,0 l/m 0 min 0 min 0 W/m 0,0 km/h (0 Bft) 100,00 %
16.03.2020 21:10 10,9 C 10,0 C 8,9 C 85 % 1024,7 hPa 0,0 l/m 0 min 0 min 0 W/m 0,0 km/h (0 Bft) 100,00 %
16.03.2020 21:12 10,9 C 10,0 C 8,9 C 85 % 1024,7 hPa 0,0 l/m 0 min 0 min 0 W/m 0,0 km/h (0 Bft) 100,00 %
16.03.2020 21:14 10,9 C 10,0 C 8,9 C 85 % 1024,7 hPa 0,0 l/m 0 min 0 min 0 W/m 0,0 km/h (0 Bft) 97,87 %
16.03.2020 21:16 10,9 C 9,4 C 8,9 C 85 % 1024,7 hPa 0,0 l/m 0 min 0 min 0 W/m 0,0 km/h (0 Bft) 100,00 %
16.03.2020 21:18 10,9 C 9,4 C 8,9 C 85 % 1024,7 hPa 0,0 l/m 0 min 0 min 0 W/m 0,0 km/h (0 Bft) 100,00 %
16.03.2020 21:20 10,8 C 9,4 C 8,9 C 85 % 1024,7 hPa 0,0 l/m 0 min 0 min 0 W/m 0,0 km/h (0 Bft) 100,00 %
16.03.2020 21:22 10,8 C 9,4 C 8,9 C 85 % 1024,8 hPa 0,0 l/m 0 min 0 min 0 W/m 0,0 km/h (0 Bft) 100,00 %
16.03.2020 21:24 10,8 C 10,0 C 8,9 C 85 % 1024,8 hPa 0,0 l/m 0 min 0 min 0 W/m 0,0 km/h (0 Bft) 100,00 %
16.03.2020 21:26 10,8 C 10,0 C 8,9 C 85 % 1024,8 hPa 0,0 l/m 0 min 0 min 0 W/m 0,0 km/h (0 Bft) 100,00 %
16.03.2020 21:28 10,8 C 10,0 C 8,9 C 85 % 1024,8 hPa 0,0 l/m 0 min 0 min 0 W/m 0,0 km/h (0 Bft) 97,87 %
16.03.2020 21:30 10,8 C 10,0 C 8,9 C 85 % 1024,9 hPa 0,0 l/m 0 min 0 min 0 W/m 0,0 km/h (0 Bft) 100,00 %
16.03.2020 21:32 10,8 C 10,0 C 8,9 C 85 % 1024,9 hPa 0,0 l/m 0 min 0 min 0 W/m 0,0 km/h (0 Bft) 100,00 %
16.03.2020 21:34 10,8 C 10,0 C 8,9 C 85 % 1024,9 hPa 0,0 l/m 0 min 0 min 0 W/m 0,0 km/h (0 Bft) 95,65 %
16.03.2020 21:36 10,7 C 9,4 C 8,9 C 85 % 1024,9 hPa 0,0 l/m 0 min 0 min 0 W/m 0,0 km/h (0 Bft) 97,87 %
16.03.2020 21:38 10,7 C 9,4 C 8,9 C 85 % 1024,9 hPa 0,0 l/m 0 min 0 min 0 W/m 0,0 km/h (0 Bft) 97,87 %
16.03.2020 21:40 10,7 C 9,4 C 8,9 C 85 % 1024,9 hPa 0,0 l/m 0 min 0 min 0 W/m 0,0 km/h (0 Bft) 97,87 %
16.03.2020 21:42 10,7 C 9,4 C 8,9 C 85 % 1025,0 hPa 0,0 l/m 0 min 0 min 0 W/m 0,0 km/h (0 Bft) 97,87 %
16.03.2020 21:44 10,7 C 9,4 C 8,9 C 85 % 1025,0 hPa 0,0 l/m 0 min 0 min 0 W/m 0,0 km/h (0 Bft) 97,87 %
16.03.2020 21:46 10,7 C 9,4 C 8,9 C 85 % 1025,0 hPa 0,0 l/m 0 min 0 min 0 W/m 0,0 km/h (0 Bft) 97,83 %
16.03.2020 21:48 10,7 C 9,4 C 8,9 C 85 % 1025,0 hPa 0,0 l/m 0 min 0 min 0 W/m 0,0 km/h (0 Bft) 97,87 %
16.03.2020 21:50 10,7 C 9,4 C 8,9 C 85 % 1025,0 hPa 0,0 l/m 0 min 0 min 0 W/m 0,0 km/h (0 Bft) 97,87 %
16.03.2020 21:52 10,7 C 9,4 C 8,9 C 85 % 1025,0 hPa 0,0 l/m 0 min 0 min 0 W/m 0,0 km/h (0 Bft) 97,87 %
16.03.2020 21:54 10,6 C 9,4 C 8,9 C 85 % 1025,1 hPa 0,0 l/m 0 min 0 min 0 W/m 0,0 km/h (0 Bft) 97,87 %
16.03.2020 21:56 10,6 C 9,4 C 8,9 C 85 % 1025,2 hPa 0,0 l/m 0 min 0 min 0 W/m 0,0 km/h (0 Bft) 95,74 %
16.03.2020 21:58 10,6 C 9,4 C 8,9 C 85 % 1025,2 hPa 0,0 l/m 0 min 0 min 0 W/m 0,0 km/h (0 Bft) 97,83 %
16.03.2020 22:00 10,6 C 9,4 C 8,9 C 85 % 1025,2 hPa 0,0 l/m 0 min 0 min 0 W/m 0,0 km/h (0 Bft) 97,87 %
16.03.2020 22:02 10,6 C 9,4 C 8,9 C 85 % 1025,2 hPa 0,0 l/m 0 min 0 min 0 W/m 0,0 km/h (0 Bft) 97,87 %
16.03.2020 22:04 10,6 C 9,4 C 8,9 C 85 % 1025,2 hPa 0,0 l/m 0 min 0 min 0 W/m 0,0 km/h (0 Bft) 97,87 %
16.03.2020 22:06 10,6 C 9,4 C 8,3 C 85 % 1025,1 hPa 0,0 l/m 0 min 0 min 0 W/m 0,0 km/h (0 Bft) 97,87 %
16.03.2020 22:08 10,6 C 9,4 C 8,3 C 85 % 1025,1 hPa 0,0 l/m 0 min 0 min 0 W/m 0,0 km/h (0 Bft) 97,83 %
16.03.2020 22:10 10,5 C 9,4 C 8,3 C 85 % 1025,1 hPa 0,0 l/m 0 min 0 min 0 W/m 0,0 km/h (0 Bft) 95,74 %
16.03.2020 22:12 10,5 C 9,4 C 8,3 C 85 % 1025,2 hPa 0,0 l/m 0 min 0 min 0 W/m 0,0 km/h (0 Bft) 97,87 %
16.03.2020 22:14 10,5 C 9,4 C 8,3 C 85 % 1025,2 hPa 0,0 l/m 0 min 0 min 0 W/m 0,0 km/h (0 Bft) 97,87 %
16.03.2020 22:16 10,5 C 9,4 C 8,3 C 85 % 1025,1 hPa 0,0 l/m 0 min 0 min 0 W/m 0,0 km/h (0 Bft) 95,74 %
16.03.2020 22:18 10,4 C 9,4 C 8,3 C 85 % 1025,1 hPa 0,0 l/m 0 min 0 min 0 W/m 0,0 km/h (0 Bft) 91,49 %
16.03.2020 22:20 10,4 C 9,4 C 8,3 C 85 % 1025,1 hPa 0,0 l/m 0 min 0 min 0 W/m 0,0 km/h (0 Bft) 95,65 %
16.03.2020 22:22 10,4 C 9,4 C 8,3 C 85 % 1025,0 hPa 0,0 l/m 0 min 0 min 0 W/m 0,0 km/h (0 Bft) 91,49 %
16.03.2020 22:24 10,4 C 9,4 C 8,3 C 85 % 1025,1 hPa 0,0 l/m 0 min 0 min 0 W/m 0,0 km/h (0 Bft) 91,49 %
16.03.2020 22:26 10,4 C 9,4 C 8,3 C 85 % 1025,1 hPa 0,0 l/m 0 min 0 min 0 W/m 0,0 km/h (0 Bft) 95,74 %
16.03.2020 22:28 10,4 C 9,4 C 8,3 C 85 % 1025,1 hPa 0,0 l/m 0 min 0 min 0 W/m 0,0 km/h (0 Bft) 89,36 %
16.03.2020 22:30 10,4 C 9,4 C 8,3 C 85 % 1025,1 hPa 0,0 l/m 0 min 0 min 0 W/m 0,0 km/h (0 Bft) 93,62 %
16.03.2020 22:32 10,4 C 8,9 C 7,8 C 85 % 1025,1 hPa 0,0 l/m 0 min 0 min 0 W/m 0,0 km/h (0 Bft) 93,48 %
16.03.2020 22:34 10,3 C 8,9 C 7,8 C 85 % 1025,2 hPa 0,0 l/m 0 min 0 min 0 W/m 0,0 km/h (0 Bft) 93,62 %
16.03.2020 22:36 10,3 C 8,9 C 7,8 C 85 % 1025,2 hPa 0,0 l/m 0 min 0 min 0 W/m 0,0 km/h (0 Bft) 93,62 %
16.03.2020 22:38 10,3 C 8,9 C 7,8 C 85 % 1025,2 hPa 0,0 l/m 0 min 0 min 0 W/m 0,0 km/h (0 Bft) 95,74 %
16.03.2020 22:40 10,3 C 8,9 C 7,8 C 85 % 1025,3 hPa 0,0 l/m 0 min 0 min 0 W/m 0,0 km/h (0 Bft) 93,62 %
16.03.2020 22:42 10,3 C 8,9 C 7,8 C 85 % 1025,3 hPa 0,0 l/m 0 min 0 min 0 W/m 0,0 km/h (0 Bft) 91,30 %
16.03.2020 22:44 10,3 C 8,9 C 7,8 C 85 % 1025,4 hPa 0,0 l/m 0 min 0 min 0 W/m 0,0 km/h (0 Bft) 95,74 %
16.03.2020 22:46 10,2 C 8,9 C 7,8 C 85 % 1025,3 hPa 0,0 l/m 0 min 0 min 0 W/m 0,0 km/h (0 Bft) 93,62 %
16.03.2020 22:48 10,2 C 8,9 C 7,8 C 85 % 1025,4 hPa 0,0 l/m 0 min 0 min 0 W/m 0,0 km/h (0 Bft) 95,74 %
16.03.2020 22:50 10,2 C 8,9 C 7,8 C 85 % 1025,3 hPa 0,0 l/m 0 min 0 min 0 W/m 0,0 km/h (0 Bft) 95,74 %
16.03.2020 22:52 10,2 C 8,9 C 7,8 C 85 % 1025,3 hPa 0,0 l/m 0 min 0 min 0 W/m 0,0 km/h (0 Bft) 95,74 %
16.03.2020 22:54 10,2 C 8,9 C 7,8 C 85 % 1025,4 hPa 0,0 l/m 0 min 0 min 0 W/m 0,0 km/h (0 Bft) 95,65 %
16.03.2020 22:56 10,1 C 8,9 C 7,8 C 85 % 1025,4 hPa 0,0 l/m 0 min 0 min 0 W/m 0,0 km/h (0 Bft) 95,74 %
16.03.2020 22:58 10,1 C 8,9 C 8,3 C 85 % 1025,5 hPa 0,0 l/m 0 min 0 min 0 W/m 0,0 km/h (0 Bft) 95,74 %
16.03.2020 23:00 10,1 C 8,9 C 8,3 C 86 % 1025,5 hPa 0,0 l/m 0 min 0 min 0 W/m 0,0 km/h (0 Bft) 93,62 %
16.03.2020 23:02 10,1 C 8,9 C 8,3 C 86 % 1025,5 hPa 0,0 l/m 0 min 0 min 0 W/m 0,0 km/h (0 Bft) 95,74 %
16.03.2020 23:04 10,1 C 8,9 C 8,3 C 86 % 1025,5 hPa 0,0 l/m 0 min 0 min 0 W/m 0,0 km/h (0 Bft) 97,87 %
16.03.2020 23:06 10,1 C 8,9 C 8,3 C 86 % 1025,6 hPa 0,0 l/m 0 min 0 min 0 W/m 0,0 km/h (0 Bft) 100,00 %
16.03.2020 23:08 10,1 C 8,9 C 8,3 C 86 % 1025,6 hPa 0,0 l/m 0 min 0 min 0 W/m 0,0 km/h (0 Bft) 100,00 %
16.03.2020 23:10 10,1 C 8,9 C 8,3 C 86 % 1025,6 hPa 0,0 l/m 0 min 0 min 0 W/m 0,0 km/h (0 Bft) 100,00 %
16.03.2020 23:12 10,0 C 8,9 C 8,3 C 86 % 1025,7 hPa 0,0 l/m 0 min 0 min 0 W/m 0,0 km/h (0 Bft) 97,87 %
16.03.2020 23:14 10,0 C 8,9 C 8,3 C 86 % 1025,7 hPa 0,0 l/m 0 min 0 min 0 W/m 0,0 km/h (0 Bft) 100,00 %
16.03.2020 23:16 10,0 C 8,9 C 8,3 C 86 % 1025,7 hPa 0,0 l/m 0 min 0 min 0 W/m 0,0 km/h (0 Bft) 100,00 %
16.03.2020 23:18 9,9 C 8,9 C 8,3 C 86 % 1025,7 hPa 0,0 l/m 0 min 0 min 0 W/m 0,0 km/h (0 Bft) 100,00 %
16.03.2020 23:20 9,9 C 9,4 C 8,3 C 86 % 1025,7 hPa 0,0 l/m 0 min 0 min 0 W/m 0,0 km/h (0 Bft) 97,87 %
16.03.2020 23:22 9,9 C 9,4 C 8,3 C 86 % 1025,7 hPa 0,0 l/m 0 min 0 min 0 W/m 0,0 km/h (0 Bft) 100,00 %
16.03.2020 23:24 9,9 C 9,4 C 8,3 C 87 % 1025,7 hPa 0,0 l/m 0 min 0 min 0 W/m 0,0 km/h (0 Bft) 100,00 %
16.03.2020 23:26 9,9 C 9,4 C 8,3 C 87 % 1025,7 hPa 0,0 l/m 0 min 0 min 0 W/m 0,0 km/h (0 Bft) 100,00 %
16.03.2020 23:28 9,9 C 8,9 C 8,3 C 87 % 1025,7 hPa 0,0 l/m 0 min 0 min 0 W/m 0,0 km/h (0 Bft) 97,87 %
16.03.2020 23:33 9,9 C 8,9 C 8,3 C 87 % 1025,7 hPa 0,0 l/m 0 min 0 min 0 W/m 0,0 km/h (0 Bft) 98,25 %
16.03.2020 23:34 9,9 C 8,9 C 8,3 C 87 % 1025,7 hPa 0,0 l/m 0 min 0 min 0 W/m 0,0 km/h (0 Bft) 100,00 %
16.03.2020 23:36 9,9 C 8,9 C 8,3 C 87 % 1025,7 hPa 0,0 l/m 0 min 0 min 0 W/m 0,0 km/h (0 Bft) 93,62 %
16.03.2020 23:38 9,9 C 8,9 C 8,3 C 87 % 1025,8 hPa 0,0 l/m 0 min 0 min 0 W/m 0,0 km/h (0 Bft) 97,87 %
16.03.2020 23:40 9,9 C 8,9 C 8,3 C 87 % 1025,7 hPa 0,0 l/m 0 min 0 min 0 W/m 0,0 km/h (0 Bft) 100,00 %
16.03.2020 23:42 9,9 C 8,9 C 8,3 C 87 % 1025,8 hPa 0,0 l/m 0 min 0 min 0 W/m 0,0 km/h (0 Bft) 100,00 %
16.03.2020 23:44 9,9 C 8,9 C 8,3 C 87 % 1025,8 hPa 0,0 l/m 0 min 0 min 0 W/m 0,0 km/h (0 Bft) 97,87 %
16.03.2020 23:46 9,9 C 8,9 C 8,3 C 87 % 1025,7 hPa 0,0 l/m 0 min 0 min 0 W/m 0,0 km/h (0 Bft) 47,37 %
16.03.2020 23:48 9,9 C 8,9 C 8,3 C 87 % 1025,7 hPa 0,0 l/m 0 min 0 min 0 W/m 0,0 km/h (0 Bft) 100,00 %
16.03.2020 23:50 9,9 C 8,9 C 8,3 C 87 % 1025,8 hPa 0,0 l/m 0 min 0 min 0 W/m 0,0 km/h (0 Bft) 100,00 %
16.03.2020 23:52 9,9 C 8,9 C 8,3 C 87 % 1025,8 hPa 0,0 l/m 0 min 0 min 0 W/m 0,0 km/h (0 Bft) 100,00 %
16.03.2020 23:54 9,8 C 8,9 C 8,3 C 87 % 1025,8 hPa 0,0 l/m 0 min 0 min 0 W/m 0,0 km/h (0 Bft) 100,00 %
16.03.2020 23:56 9,8 C 8,9 C 8,3 C 87 % 1025,9 hPa 0,0 l/m 0 min 0 min 0 W/m 0,0 km/h (0 Bft) 95,74 %
16.03.2020 23:58 9,8 C 8,9 C 8,3 C 87 % 1025,9 hPa 0,0 l/m 0 min 0 min 0 W/m 0,0 km/h (0 Bft) 97,87 %
_ Min-Zeit 06:46 06:04 06:12 14:20 00:00 - - - - 00:00 23:46
Minimum _ 4,3 C 2,8 C 1,7 C 60 % 1013,4 hPa - - - - 0,0 km/h (0 Bft) 47,37 %
_ Max-Zeit 14:16 13:26 13:18 07:24 23:56 00:00 13:09 00:00 14:10 15:54 00:00
Maximum _ 18,1 C 25,0 C 23,3 C 90 % 1025,9 hPa 0,0 l/m 5 min 0 min 778 W/m 29,0 km/h
W-NW (5 Bft)
100,00 %
Durchschnitt _ 10,8 C 11,6 C 9,6 C 80 % 1019,4 hPa #0,0 l/m #7:14 h #0 min. 330 W/m 1,5 km/h (1 Bft) 97,26 %
© 2020 W. Hausmann